Wetterdaten: Freitag, 14.10.2022
Datum Zeit Temp. Aussen Temp. o. S. Temp +5cm Feuchte Auss Luftdruck Regen Sonnenschein Regendauer Solar Windben Empfang
14.10.2022 00:00 12,4 C 11,7 C 8,9 C 97 % 1016,8 hPa 0,0 l/m 0 min 0 min 0 W/m 9,7 km/h (2 Bft) 93,62 %
14.10.2022 00:02 12,5 C 11,7 C 8,9 C 97 % 1016,8 hPa 0,0 l/m 0 min 0 min 0 W/m 3,2 km/h (1 Bft) 97,14 %
14.10.2022 00:04 12,5 C 11,7 C 8,9 C 97 % 1016,8 hPa 0,0 l/m 0 min 0 min 0 W/m 3,2 km/h (1 Bft) 97,83 %
14.10.2022 00:08 12,5 C 11,7 C 8,9 C 97 % 1016,8 hPa 0,0 l/m 0 min 0 min 0 W/m 9,7 km/h (2 Bft) 96,81 %
14.10.2022 00:10 12,5 C 11,7 C 8,9 C 97 % 1016,8 hPa 0,0 l/m 0 min 0 min 0 W/m 9,7 km/h (2 Bft) 95,74 %
14.10.2022 00:12 12,5 C 11,7 C 8,9 C 97 % 1016,8 hPa 0,0 l/m 0 min 0 min 0 W/m 6,4 km/h (2 Bft) 95,74 %
14.10.2022 00:14 12,5 C 11,7 C 8,9 C 97 % 1016,8 hPa 0,0 l/m 0 min 0 min 0 W/m 9,7 km/h (2 Bft) 97,83 %
14.10.2022 00:16 12,5 C 11,7 C 8,9 C 97 % 1016,7 hPa 0,0 l/m 0 min 0 min 0 W/m 3,2 km/h (1 Bft) 100,00 %
14.10.2022 00:18 12,5 C 11,7 C 8,9 C 97 % 1016,7 hPa 0,0 l/m 0 min 0 min 0 W/m 3,2 km/h (1 Bft) 100,00 %
14.10.2022 00:20 12,5 C 11,7 C 8,9 C 97 % 1016,8 hPa 0,0 l/m 0 min 0 min 0 W/m 3,2 km/h (1 Bft) 100,00 %
14.10.2022 00:22 12,5 C 11,7 C 8,9 C 97 % 1016,7 hPa 0,0 l/m 0 min 0 min 0 W/m 6,4 km/h (2 Bft) 100,00 %
14.10.2022 00:24 12,6 C 11,7 C 8,9 C 97 % 1016,7 hPa 0,0 l/m 0 min 0 min 0 W/m 6,4 km/h (2 Bft) 100,00 %
14.10.2022 00:26 12,5 C 11,7 C 8,9 C 97 % 1016,7 hPa 0,0 l/m 0 min 0 min 0 W/m 3,2 km/h (1 Bft) 100,00 %
14.10.2022 00:28 12,5 C 11,7 C 8,9 C 97 % 1016,7 hPa 0,0 l/m 0 min 0 min 0 W/m 3,2 km/h (1 Bft) 100,00 %
14.10.2022 00:30 12,5 C 11,7 C 8,9 C 97 % 1016,7 hPa 0,0 l/m 0 min 0 min 0 W/m 3,2 km/h (1 Bft) 100,00 %
14.10.2022 00:32 12,6 C 11,7 C 8,9 C 97 % 1016,7 hPa 0,0 l/m 0 min 0 min 0 W/m 0,0 km/h (0 Bft) 97,87 %
14.10.2022 00:34 12,6 C 11,7 C 8,9 C 97 % 1016,7 hPa 0,0 l/m 0 min 0 min 0 W/m 3,2 km/h (1 Bft) 97,87 %
14.10.2022 00:36 12,6 C 11,7 C 8,9 C 97 % 1016,6 hPa 0,0 l/m 0 min 0 min 0 W/m 3,2 km/h (1 Bft) 100,00 %
14.10.2022 00:38 12,6 C 11,7 C 8,9 C 97 % 1016,6 hPa 0,0 l/m 0 min 0 min 0 W/m 3,2 km/h (1 Bft) 100,00 %
14.10.2022 00:40 12,6 C 11,7 C 8,9 C 97 % 1016,6 hPa 0,0 l/m 0 min 0 min 0 W/m 3,2 km/h (1 Bft) 97,87 %
14.10.2022 00:42 12,6 C 11,7 C 8,9 C 97 % 1016,6 hPa 0,0 l/m 0 min 0 min 0 W/m 3,2 km/h (1 Bft) 97,87 %
14.10.2022 00:44 12,6 C 11,7 C 8,9 C 97 % 1016,7 hPa 0,0 l/m 0 min 0 min 0 W/m 0,0 km/h (0 Bft) 100,00 %
14.10.2022 00:46 12,6 C 11,7 C 8,9 C 97 % 1016,6 hPa 0,0 l/m 0 min 0 min 0 W/m 3,2 km/h (1 Bft) 100,00 %
14.10.2022 00:48 12,6 C 11,7 C 8,9 C 97 % 1016,7 hPa 0,0 l/m 0 min 0 min 0 W/m 3,2 km/h (1 Bft) 97,87 %
14.10.2022 00:50 12,6 C 11,7 C 8,9 C 97 % 1016,6 hPa 0,0 l/m 0 min 0 min 0 W/m 6,4 km/h (2 Bft) 100,00 %
14.10.2022 00:52 12,6 C 11,7 C 8,9 C 97 % 1016,7 hPa 0,0 l/m 0 min 0 min 0 W/m 3,2 km/h (1 Bft) 97,87 %
14.10.2022 00:54 12,6 C 11,7 C 8,9 C 97 % 1016,6 hPa 0,0 l/m 0 min 0 min 0 W/m 6,4 km/h (2 Bft) 97,87 %
14.10.2022 00:56 12,6 C 11,7 C 8,9 C 97 % 1016,6 hPa 0,0 l/m 0 min 0 min 0 W/m 6,4 km/h (2 Bft) 97,87 %
14.10.2022 00:58 12,6 C 11,7 C 8,9 C 97 % 1016,6 hPa 0,0 l/m 0 min 0 min 0 W/m 6,4 km/h (2 Bft) 97,87 %
14.10.2022 01:00 12,6 C 11,7 C 8,9 C 97 % 1016,6 hPa 0,0 l/m 0 min 0 min 0 W/m 9,7 km/h (2 Bft) 97,87 %
14.10.2022 01:02 12,6 C 11,7 C 8,9 C 97 % 1016,5 hPa 0,0 l/m 0 min 0 min 0 W/m 6,4 km/h (2 Bft) 95,65 %
14.10.2022 01:04 12,6 C 11,7 C 8,9 C 97 % 1016,6 hPa 0,0 l/m 0 min 0 min 0 W/m 3,2 km/h (1 Bft) 97,87 %
14.10.2022 01:06 12,6 C 11,7 C 8,9 C 97 % 1016,5 hPa 0,0 l/m 0 min 0 min 0 W/m 12,9 km/h (3 Bft) 94,92 %
14.10.2022 01:08 12,6 C 11,7 C 8,9 C 97 % 1016,5 hPa 0,0 l/m 0 min 0 min 0 W/m 6,4 km/h (2 Bft) 97,14 %
14.10.2022 01:10 12,6 C 11,7 C 8,9 C 97 % 1016,5 hPa 0,0 l/m 0 min 0 min 0 W/m 3,2 km/h (1 Bft) 97,87 %
14.10.2022 01:12 12,6 C 11,7 C 8,9 C 97 % 1016,5 hPa 0,0 l/m 0 min 0 min 0 W/m 0,0 km/h (0 Bft) 93,62 %
14.10.2022 01:14 12,6 C 11,7 C 8,9 C 97 % 1016,5 hPa 0,0 l/m 0 min 0 min 0 W/m 3,2 km/h (1 Bft) 97,83 %
14.10.2022 01:16 12,6 C 11,7 C 8,9 C 97 % 1016,4 hPa 0,0 l/m 0 min 0 min 0 W/m 0,0 km/h (0 Bft) 97,87 %
14.10.2022 01:18 12,6 C 11,7 C 8,9 C 97 % 1016,5 hPa 0,0 l/m 0 min 0 min 0 W/m 3,2 km/h (1 Bft) 97,87 %
14.10.2022 01:20 12,6 C 11,7 C 8,9 C 97 % 1016,5 hPa 0,0 l/m 0 min 0 min 0 W/m 3,2 km/h (1 Bft) 95,74 %
14.10.2022 01:22 12,6 C 11,7 C 8,9 C 97 % 1016,5 hPa 0,0 l/m 0 min 0 min 0 W/m 9,7 km/h (2 Bft) 97,87 %
14.10.2022 01:24 12,6 C 11,7 C 8,9 C 97 % 1016,5 hPa 0,0 l/m 0 min 0 min 0 W/m 6,4 km/h (2 Bft) 97,87 %
14.10.2022 01:26 12,6 C 11,7 C 8,9 C 97 % 1016,5 hPa 0,0 l/m 0 min 0 min 0 W/m 6,4 km/h (2 Bft) 97,83 %
14.10.2022 01:28 12,6 C 11,7 C 8,9 C 97 % 1016,4 hPa 0,0 l/m 0 min 0 min 0 W/m 3,2 km/h (1 Bft) 97,87 %
14.10.2022 01:30 12,6 C 11,7 C 8,9 C 97 % 1016,5 hPa 0,0 l/m 0 min 0 min 0 W/m 9,7 km/h (2 Bft) 95,74 %
14.10.2022 01:32 12,6 C 11,7 C 8,9 C 97 % 1016,4 hPa 0,0 l/m 0 min 0 min 0 W/m 6,4 km/h (2 Bft) 95,74 %
14.10.2022 01:34 12,6 C 11,7 C 8,9 C 97 % 1016,4 hPa 0,0 l/m 0 min 0 min 0 W/m 3,2 km/h (1 Bft) 97,87 %
14.10.2022 01:36 12,6 C 11,7 C 8,9 C 97 % 1016,4 hPa 0,0 l/m 0 min 0 min 0 W/m 3,2 km/h (1 Bft) 98,28 %
14.10.2022 01:38 12,6 C 11,7 C 8,9 C 97 % 1016,4 hPa 0,0 l/m 0 min 0 min 0 W/m 3,2 km/h (1 Bft) 97,14 %
14.10.2022 01:40 12,6 C 11,7 C 8,9 C 97 % 1016,3 hPa 0,0 l/m 0 min 0 min 0 W/m 3,2 km/h (1 Bft) 97,87 %
14.10.2022 01:42 12,6 C 11,7 C 8,9 C 97 % 1016,3 hPa 0,0 l/m 0 min 0 min 0 W/m 3,2 km/h (1 Bft) 93,62 %
14.10.2022 01:44 12,6 C 11,7 C 8,9 C 97 % 1016,3 hPa 0,0 l/m 0 min 0 min 0 W/m 6,4 km/h (2 Bft) 97,87 %
14.10.2022 01:46 12,6 C 11,7 C 8,9 C 97 % 1016,3 hPa 0,0 l/m 0 min 0 min 0 W/m 3,2 km/h (1 Bft) 97,87 %
14.10.2022 01:48 12,6 C 11,7 C 8,9 C 97 % 1016,2 hPa 0,0 l/m 0 min 0 min 0 W/m 0,0 km/h (0 Bft) 97,87 %
14.10.2022 01:50 12,7 C 11,7 C 8,9 C 97 % 1016,2 hPa 0,0 l/m 0 min 0 min 0 W/m 3,2 km/h (1 Bft) 97,83 %
14.10.2022 01:52 12,7 C 11,7 C 8,9 C 97 % 1016,2 hPa 0,0 l/m 0 min 0 min 0 W/m 0,0 km/h (0 Bft) 95,74 %
14.10.2022 01:54 12,7 C 11,7 C 8,9 C 97 % 1016,2 hPa 0,0 l/m 0 min 0 min 0 W/m 0,0 km/h (0 Bft) 97,87 %
14.10.2022 01:56 12,7 C 11,7 C 8,9 C 97 % 1016,2 hPa 0,0 l/m 0 min 0 min 0 W/m 0,0 km/h (0 Bft) 97,87 %
14.10.2022 01:58 12,6 C 11,7 C 8,9 C 97 % 1016,2 hPa 0,0 l/m 0 min 0 min 0 W/m 0,0 km/h (0 Bft) 97,87 %
14.10.2022 02:00 12,6 C 11,7 C 8,9 C 97 % 1016,1 hPa 0,0 l/m 0 min 0 min 0 W/m 0,0 km/h (0 Bft) 100,00 %
14.10.2022 02:02 12,6 C 11,7 C 8,9 C 97 % 1016,1 hPa 0,0 l/m 0 min 0 min 0 W/m 0,0 km/h (0 Bft) 100,00 %
14.10.2022 02:04 12,6 C 11,7 C 8,9 C 98 % 1016,2 hPa 0,0 l/m 0 min 0 min 0 W/m 0,0 km/h (0 Bft) 97,87 %
14.10.2022 02:06 12,6 C 11,7 C 8,9 C 98 % 1016,2 hPa 0,0 l/m 0 min 0 min 0 W/m 3,2 km/h (1 Bft) 100,00 %
14.10.2022 02:08 12,7 C 11,7 C 8,9 C 98 % 1016,1 hPa 0,0 l/m 0 min 0 min 0 W/m 3,2 km/h (1 Bft) 97,14 %
14.10.2022 02:10 12,6 C 11,7 C 8,9 C 98 % 1016,1 hPa 0,0 l/m 0 min 0 min 0 W/m 3,2 km/h (1 Bft) 95,74 %
14.10.2022 02:12 12,6 C 11,7 C 8,9 C 98 % 1016,1 hPa 0,0 l/m 0 min 0 min 0 W/m 6,4 km/h (2 Bft) 97,87 %
14.10.2022 02:14 12,6 C 11,7 C 8,9 C 98 % 1016,1 hPa 0,0 l/m 0 min 0 min 0 W/m 3,2 km/h (1 Bft) 97,83 %
14.10.2022 02:16 12,6 C 11,7 C 8,9 C 98 % 1016,1 hPa 0,0 l/m 0 min 0 min 0 W/m 3,2 km/h (1 Bft) 94,44 %
14.10.2022 02:18 12,6 C 11,7 C 8,9 C 98 % 1016,1 hPa 0,0 l/m 0 min 0 min 0 W/m 3,2 km/h (1 Bft) 94,00 %
14.10.2022 02:20 12,6 C 11,7 C 8,9 C 98 % 1016,1 hPa 0,0 l/m 0 min 0 min 0 W/m 3,2 km/h (1 Bft) 95,74 %
14.10.2022 02:22 12,6 C 11,7 C 8,9 C 98 % 1016,0 hPa 0,0 l/m 0 min 0 min 0 W/m 6,4 km/h (2 Bft) 95,74 %
14.10.2022 02:24 12,6 C 11,7 C 8,9 C 98 % 1016,0 hPa 0,0 l/m 0 min 0 min 0 W/m 3,2 km/h (1 Bft) 97,87 %
14.10.2022 02:26 12,6 C 11,7 C 8,9 C 98 % 1016,0 hPa 0,0 l/m 0 min 0 min 0 W/m 3,2 km/h (1 Bft) 97,87 %
14.10.2022 02:28 12,6 C 11,7 C 8,9 C 98 % 1016,1 hPa 0,0 l/m 0 min 0 min 0 W/m 3,2 km/h (1 Bft) 95,74 %
14.10.2022 02:30 12,6 C 11,7 C 8,9 C 98 % 1016,0 hPa 0,0 l/m 0 min 0 min 0 W/m 0,0 km/h (0 Bft) 97,83 %
14.10.2022 02:32 12,6 C 11,7 C 8,9 C 98 % 1015,9 hPa 0,0 l/m 0 min 0 min 0 W/m 3,2 km/h (1 Bft) 95,74 %
14.10.2022 02:34 12,6 C 11,7 C 8,9 C 98 % 1015,9 hPa 0,0 l/m 0 min 0 min 0 W/m 3,2 km/h (1 Bft) 95,74 %
14.10.2022 02:36 12,6 C 11,7 C 8,9 C 98 % 1016,0 hPa 0,0 l/m 0 min 0 min 0 W/m 3,2 km/h (1 Bft) 97,92 %
14.10.2022 02:38 12,6 C 11,7 C 8,9 C 98 % 1015,9 hPa 0,2 l/m 0 min 0 min 0 W/m 0,0 km/h (0 Bft) 97,87 %
14.10.2022 02:40 12,6 C 11,7 C 8,9 C 98 % 1016,0 hPa 0,0 l/m 0 min 0 min 0 W/m 3,2 km/h (1 Bft) 97,87 %
14.10.2022 02:42 12,6 C 11,7 C 8,9 C 98 % 1016,1 hPa 0,0 l/m 0 min 0 min 0 W/m 3,2 km/h (1 Bft) 95,74 %
14.10.2022 02:44 12,6 C 11,7 C 8,9 C 98 % 1016,1 hPa 0,0 l/m 0 min 0 min 0 W/m 3,2 km/h (1 Bft) 97,87 %
14.10.2022 02:46 12,6 C 11,7 C 8,9 C 98 % 1016,0 hPa 0,0 l/m 0 min 0 min 0 W/m 3,2 km/h (1 Bft) 97,83 %
14.10.2022 02:48 12,6 C 11,7 C 8,9 C 98 % 1015,9 hPa 0,0 l/m 0 min 0 min 0 W/m 3,2 km/h (1 Bft) 95,74 %
14.10.2022 02:50 12,6 C 11,7 C 8,9 C 98 % 1016,0 hPa 0,0 l/m 0 min 0 min 0 W/m 3,2 km/h (1 Bft) 97,87 %
14.10.2022 02:52 12,6 C 11,7 C 8,9 C 98 % 1016,0 hPa 0,0 l/m 0 min 0 min 0 W/m 3,2 km/h (1 Bft) 97,87 %
14.10.2022 02:54 12,6 C 11,7 C 8,9 C 98 % 1016,0 hPa 0,0 l/m 0 min 0 min 0 W/m 3,2 km/h (1 Bft) 97,87 %
14.10.2022 02:56 12,6 C 11,7 C 8,9 C 98 % 1015,9 hPa 0,0 l/m 0 min 0 min 0 W/m 0,0 km/h (0 Bft) 97,87 %
14.10.2022 02:58 12,6 C 11,7 C 8,9 C 98 % 1015,9 hPa 0,0 l/m 0 min 0 min 0 W/m 3,2 km/h (1 Bft) 100,00 %
14.10.2022 03:00 12,6 C 11,7 C 8,9 C 98 % 1015,9 hPa 0,0 l/m 0 min 0 min 0 W/m 3,2 km/h (1 Bft) 97,87 %
14.10.2022 03:02 12,6 C 11,7 C 8,9 C 98 % 1015,9 hPa 0,0 l/m 0 min 0 min 0 W/m 3,2 km/h (1 Bft) 100,00 %
14.10.2022 03:04 12,6 C 11,7 C 8,9 C 98 % 1015,9 hPa 0,0 l/m 0 min 0 min 0 W/m 3,2 km/h (1 Bft) 100,00 %
14.10.2022 03:06 12,6 C 11,7 C 8,9 C 98 % 1015,9 hPa 0,0 l/m 0 min 0 min 0 W/m 3,2 km/h (1 Bft) 97,87 %
14.10.2022 03:08 12,6 C 11,7 C 8,9 C 98 % 1015,9 hPa 0,0 l/m 0 min 0 min 0 W/m 3,2 km/h (1 Bft) 97,87 %
14.10.2022 03:10 12,6 C 11,7 C 8,9 C 98 % 1015,9 hPa 0,0 l/m 0 min 2 min 0 W/m 3,2 km/h (1 Bft) 100,00 %
14.10.2022 03:12 12,6 C 11,7 C 8,9 C 98 % 1015,9 hPa 0,0 l/m 0 min 2 min 0 W/m 3,2 km/h (1 Bft) 97,87 %
14.10.2022 03:14 12,6 C 11,7 C 8,9 C 98 % 1015,8 hPa 0,0 l/m 0 min 2 min 0 W/m 3,2 km/h (1 Bft) 100,00 %
14.10.2022 03:16 12,6 C 11,7 C 8,9 C 98 % 1015,8 hPa 0,0 l/m 0 min 0 min 0 W/m 3,2 km/h (1 Bft) 97,87 %
14.10.2022 03:18 12,6 C 11,7 C 8,9 C 98 % 1015,8 hPa 0,0 l/m 0 min 2 min 0 W/m 3,2 km/h (1 Bft) 100,00 %
14.10.2022 03:20 12,6 C 11,7 C 8,9 C 98 % 1015,8 hPa 0,0 l/m 0 min 2 min 0 W/m 0,0 km/h (0 Bft) 100,00 %
14.10.2022 03:22 12,6 C 11,7 C 8,9 C 98 % 1015,7 hPa 0,0 l/m 0 min 0 min 0 W/m 0,0 km/h (0 Bft) 95,65 %
14.10.2022 03:24 12,6 C 11,7 C 8,9 C 98 % 1015,7 hPa 0,2 l/m 0 min 0 min 0 W/m 3,2 km/h (1 Bft) 93,62 %
14.10.2022 03:26 12,6 C 11,7 C 8,9 C 98 % 1015,7 hPa 0,0 l/m 0 min 0 min 0 W/m 3,2 km/h (1 Bft) 95,74 %
14.10.2022 03:28 12,6 C 11,7 C 8,9 C 98 % 1015,7 hPa 0,0 l/m 0 min 0 min 0 W/m 3,2 km/h (1 Bft) 95,74 %
14.10.2022 03:30 12,6 C 11,7 C 8,9 C 98 % 1015,6 hPa 0,0 l/m 0 min 0 min 0 W/m 3,2 km/h (1 Bft) 94,29 %
14.10.2022 03:32 12,6 C 11,7 C 8,9 C 98 % 1015,5 hPa 0,0 l/m 0 min 0 min 0 W/m 0,0 km/h (0 Bft) 96,61 %
14.10.2022 03:34 12,6 C 11,7 C 8,9 C 98 % 1015,5 hPa 0,0 l/m 0 min 0 min 0 W/m 3,2 km/h (1 Bft) 94,29 %
14.10.2022 03:36 12,6 C 11,7 C 8,9 C 98 % 1015,6 hPa 0,0 l/m 0 min 0 min 0 W/m 6,4 km/h (2 Bft) 96,55 %
14.10.2022 03:38 12,6 C 11,7 C 8,9 C 98 % 1015,5 hPa 0,0 l/m 0 min 0 min 0 W/m 3,2 km/h (1 Bft) 95,74 %
14.10.2022 03:40 12,6 C 11,7 C 8,9 C 98 % 1015,5 hPa 0,0 l/m 0 min 0 min 0 W/m 0,0 km/h (0 Bft) 94,29 %
14.10.2022 03:42 12,6 C 11,7 C 8,9 C 98 % 1015,5 hPa 0,0 l/m 0 min 0 min 0 W/m 3,2 km/h (1 Bft) 95,74 %
14.10.2022 03:44 12,6 C 11,7 C 8,9 C 98 % 1015,5 hPa 0,0 l/m 0 min 0 min 0 W/m 3,2 km/h (1 Bft) 95,74 %
14.10.2022 03:46 12,6 C 11,7 C 8,9 C 98 % 1015,4 hPa 0,0 l/m 0 min 0 min 0 W/m 3,2 km/h (1 Bft) 95,74 %
14.10.2022 03:48 12,6 C 11,7 C 8,9 C 98 % 1015,4 hPa 0,0 l/m 0 min 0 min 0 W/m 3,2 km/h (1 Bft) 96,55 %
14.10.2022 03:50 12,6 C 11,7 C 8,9 C 98 % 1015,4 hPa 0,0 l/m 0 min 0 min 0 W/m 3,2 km/h (1 Bft) 94,29 %
14.10.2022 03:52 12,6 C 11,7 C 8,9 C 98 % 1015,4 hPa 0,0 l/m 0 min 0 min 0 W/m 0,0 km/h (0 Bft) 94,92 %
14.10.2022 03:54 12,6 C 11,7 C 8,9 C 98 % 1015,4 hPa 0,0 l/m 0 min 0 min 0 W/m 3,2 km/h (1 Bft) 97,87 %
14.10.2022 03:56 12,6 C 11,7 C 8,9 C 98 % 1015,4 hPa 0,0 l/m 0 min 0 min 0 W/m 3,2 km/h (1 Bft) 97,87 %
14.10.2022 03:58 12,6 C 11,7 C 8,9 C 98 % 1015,3 hPa 0,0 l/m 0 min 0 min 0 W/m 3,2 km/h (1 Bft) 95,65 %
14.10.2022 04:00 12,6 C 11,7 C 8,9 C 98 % 1015,3 hPa 0,0 l/m 0 min 0 min 0 W/m 3,2 km/h (1 Bft) 97,87 %
14.10.2022 04:05 12,6 C 11,7 C 8,9 C 98 % 1015,3 hPa 0,0 l/m 0 min 0 min 0 W/m 3,2 km/h (1 Bft) 100,00 %
14.10.2022 04:06 12,6 C 11,7 C 8,9 C 98 % 1015,3 hPa 0,0 l/m 0 min 0 min 0 W/m 0,0 km/h (0 Bft) 100,00 %
14.10.2022 04:08 12,6 C 11,7 C 8,9 C 98 % 1015,3 hPa 0,0 l/m 0 min 0 min 0 W/m 3,2 km/h (1 Bft) 97,87 %
14.10.2022 04:10 12,6 C 11,7 C 8,9 C 98 % 1015,3 hPa 0,0 l/m 0 min 0 min 0 W/m 3,2 km/h (1 Bft) 97,83 %
14.10.2022 04:12 12,6 C 11,7 C 8,9 C 98 % 1015,3 hPa 0,2 l/m 0 min 0 min 0 W/m 3,2 km/h (1 Bft) 100,00 %
14.10.2022 04:14 12,6 C 11,7 C 8,9 C 98 % 1015,2 hPa 0,0 l/m 0 min 0 min 0 W/m 3,2 km/h (1 Bft) 100,00 %
14.10.2022 04:16 12,6 C 11,7 C 8,9 C 98 % 1015,3 hPa 0,0 l/m 0 min 0 min 0 W/m 3,2 km/h (1 Bft) 100,00 %
14.10.2022 04:18 12,6 C 11,7 C 8,9 C 98 % 1015,3 hPa 0,0 l/m 0 min 0 min 0 W/m 3,2 km/h (1 Bft) 100,00 %
14.10.2022 04:20 12,6 C 11,7 C 8,9 C 98 % 1015,2 hPa 0,0 l/m 0 min 0 min 0 W/m 0,0 km/h (0 Bft) 100,00 %
14.10.2022 04:22 12,6 C 11,7 C 9,4 C 98 % 1015,2 hPa 0,0 l/m 0 min 0 min 0 W/m 3,2 km/h (1 Bft) 100,00 %
14.10.2022 04:24 12,6 C 11,7 C 9,4 C 98 % 1015,2 hPa 0,0 l/m 0 min 0 min 0 W/m 3,2 km/h (1 Bft) 100,00 %
14.10.2022 04:26 12,6 C 11,7 C 9,4 C 98 % 1015,2 hPa 0,0 l/m 0 min 0 min 0 W/m 6,4 km/h (2 Bft) 100,00 %
14.10.2022 04:28 12,6 C 11,7 C 9,4 C 98 % 1015,2 hPa 0,0 l/m 0 min 0 min 0 W/m 3,2 km/h (1 Bft) 100,00 %
14.10.2022 04:30 12,6 C 11,7 C 9,4 C 98 % 1015,2 hPa 0,0 l/m 0 min 0 min 0 W/m 0,0 km/h (0 Bft) 100,00 %
14.10.2022 04:32 12,7 C 11,7 C 9,4 C 98 % 1015,2 hPa 0,0 l/m 0 min 0 min 0 W/m 3,2 km/h (1 Bft) 97,14 %
14.10.2022 04:34 12,7 C 11,7 C 9,4 C 98 % 1015,2 hPa 0,0 l/m 0 min 0 min 0 W/m 3,2 km/h (1 Bft) 100,00 %
14.10.2022 04:36 12,7 C 11,7 C 9,4 C 98 % 1015,0 hPa 0,0 l/m 0 min 0 min 0 W/m 6,4 km/h (2 Bft) 100,00 %
14.10.2022 04:38 12,7 C 11,7 C 9,4 C 98 % 1015,1 hPa 0,0 l/m 0 min 0 min 0 W/m 3,2 km/h (1 Bft) 100,00 %
14.10.2022 04:40 12,7 C 11,7 C 9,4 C 99 % 1015,0 hPa 0,0 l/m 0 min 0 min 0 W/m 3,2 km/h (1 Bft) 100,00 %
14.10.2022 04:42 12,7 C 11,7 C 9,4 C 99 % 1015,0 hPa 0,0 l/m 0 min 0 min 0 W/m 3,2 km/h (1 Bft) 97,87 %
14.10.2022 04:44 12,7 C 11,7 C 9,4 C 99 % 1015,0 hPa 0,0 l/m 0 min 0 min 0 W/m 3,2 km/h (1 Bft) 100,00 %
14.10.2022 04:46 12,7 C 11,7 C 9,4 C 99 % 1015,0 hPa 0,0 l/m 0 min 0 min 0 W/m 6,4 km/h (2 Bft) 100,00 %
14.10.2022 04:48 12,6 C 11,7 C 9,4 C 99 % 1014,9 hPa 0,0 l/m 0 min 0 min 0 W/m 3,2 km/h (1 Bft) 100,00 %
14.10.2022 04:50 12,7 C 11,7 C 9,4 C 99 % 1014,9 hPa 0,0 l/m 0 min 0 min 0 W/m 3,2 km/h (1 Bft) 100,00 %
14.10.2022 04:52 12,6 C 11,7 C 9,4 C 99 % 1014,9 hPa 0,0 l/m 0 min 0 min 0 W/m 6,4 km/h (2 Bft) 100,00 %
14.10.2022 04:54 12,6 C 11,7 C 9,4 C 99 % 1014,8 hPa 0,0 l/m 0 min 0 min 0 W/m 3,2 km/h (1 Bft) 100,00 %
14.10.2022 04:56 12,6 C 11,7 C 9,4 C 99 % 1014,8 hPa 0,0 l/m 0 min 0 min 0 W/m 3,2 km/h (1 Bft) 100,00 %
14.10.2022 04:58 12,6 C 11,7 C 8,9 C 99 % 1014,8 hPa 0,0 l/m 0 min 0 min 0 W/m 6,4 km/h (2 Bft) 100,00 %
14.10.2022 05:00 12,6 C 11,7 C 8,9 C 99 % 1014,8 hPa 0,0 l/m 0 min 0 min 0 W/m 3,2 km/h (1 Bft) 100,00 %
14.10.2022 05:02 12,6 C 11,7 C 8,9 C 99 % 1014,8 hPa 0,0 l/m 0 min 0 min 0 W/m 3,2 km/h (1 Bft) 97,87 %
14.10.2022 05:04 12,6 C 11,7 C 8,9 C 99 % 1014,8 hPa 0,0 l/m 0 min 0 min 0 W/m 3,2 km/h (1 Bft) 97,87 %
14.10.2022 05:06 12,6 C 11,7 C 8,9 C 99 % 1014,8 hPa 0,0 l/m 0 min 0 min 0 W/m 3,2 km/h (1 Bft) 94,92 %
14.10.2022 05:08 12,6 C 11,7 C 8,9 C 99 % 1014,7 hPa 0,0 l/m 0 min 0 min 0 W/m 0,0 km/h (0 Bft) 97,14 %
14.10.2022 05:10 12,6 C 11,7 C 8,9 C 99 % 1014,7 hPa 0,0 l/m 0 min 0 min 0 W/m 3,2 km/h (1 Bft) 97,87 %
14.10.2022 05:12 12,6 C 11,7 C 8,9 C 99 % 1014,8 hPa 0,0 l/m 0 min 0 min 0 W/m 3,2 km/h (1 Bft) 95,65 %
14.10.2022 05:14 12,6 C 11,7 C 8,9 C 99 % 1014,7 hPa 0,0 l/m 0 min 0 min 0 W/m 6,4 km/h (2 Bft) 97,87 %
14.10.2022 05:16 12,6 C 11,7 C 8,9 C 99 % 1014,7 hPa 0,0 l/m 0 min 0 min 0 W/m 3,2 km/h (1 Bft) 93,62 %
14.10.2022 05:18 12,6 C 11,7 C 8,9 C 99 % 1014,7 hPa 0,0 l/m 0 min 0 min 0 W/m 3,2 km/h (1 Bft) 72,34 %
14.10.2022 05:20 12,6 C 11,7 C 8,9 C 99 % 1014,7 hPa 0,0 l/m 0 min 0 min 0 W/m 6,4 km/h (2 Bft) 72,73 %
14.10.2022 05:22 12,6 C 11,7 C 8,9 C 98 % 1014,7 hPa 0,0 l/m 0 min 0 min 0 W/m 6,4 km/h (2 Bft) 95,74 %
14.10.2022 05:24 12,6 C 11,7 C 8,9 C 98 % 1014,7 hPa 0,0 l/m 0 min 0 min 0 W/m 6,4 km/h (2 Bft) 95,74 %
14.10.2022 05:26 12,5 C 11,7 C 8,9 C 98 % 1014,6 hPa 0,0 l/m 0 min 2 min 0 W/m 6,4 km/h (2 Bft) 95,65 %
14.10.2022 05:28 12,5 C 11,7 C 8,9 C 99 % 1014,7 hPa 0,0 l/m 0 min 0 min 0 W/m 3,2 km/h (1 Bft) 97,87 %
14.10.2022 05:30 12,5 C 11,7 C 8,9 C 99 % 1014,7 hPa 0,0 l/m 0 min 0 min 0 W/m 3,2 km/h (1 Bft) 93,62 %
14.10.2022 05:32 12,5 C 11,7 C 8,9 C 99 % 1014,6 hPa 0,0 l/m 0 min 0 min 0 W/m 6,4 km/h (2 Bft) 95,74 %
14.10.2022 05:34 12,5 C 11,7 C 8,9 C 99 % 1014,7 hPa 0,0 l/m 0 min 0 min 0 W/m 6,4 km/h (2 Bft) 93,62 %
14.10.2022 05:36 12,5 C 11,7 C 8,9 C 99 % 1014,6 hPa 0,0 l/m 0 min 2 min 0 W/m 6,4 km/h (2 Bft) 96,55 %
14.10.2022 05:38 12,5 C 11,7 C 9,4 C 99 % 1014,6 hPa 0,0 l/m 0 min 2 min 0 W/m 3,2 km/h (1 Bft) 94,29 %
14.10.2022 05:40 12,5 C 11,7 C 9,4 C 99 % 1014,6 hPa 0,2 l/m 0 min 0 min 0 W/m 3,2 km/h (1 Bft) 93,62 %
14.10.2022 05:42 12,5 C 11,7 C 8,9 C 99 % 1014,6 hPa 0,0 l/m 0 min 0 min 0 W/m 6,4 km/h (2 Bft) 93,62 %
14.10.2022 05:44 12,5 C 11,7 C 8,9 C 99 % 1014,6 hPa 0,0 l/m 0 min 0 min 0 W/m 3,2 km/h (1 Bft) 95,74 %
14.10.2022 05:46 12,5 C 11,7 C 8,9 C 99 % 1014,6 hPa 0,0 l/m 0 min 0 min 0 W/m 6,4 km/h (2 Bft) 93,62 %
14.10.2022 05:48 12,5 C 11,7 C 8,9 C 99 % 1014,6 hPa 0,0 l/m 0 min 0 min 0 W/m 3,2 km/h (1 Bft) 95,65 %
14.10.2022 05:50 12,5 C 11,7 C 8,9 C 99 % 1014,6 hPa 0,0 l/m 0 min 0 min 0 W/m 6,4 km/h (2 Bft) 95,74 %
14.10.2022 05:52 12,5 C 11,7 C 9,4 C 99 % 1014,5 hPa 0,0 l/m 0 min 0 min 0 W/m 3,2 km/h (1 Bft) 97,87 %
14.10.2022 05:54 12,5 C 11,7 C 9,4 C 99 % 1014,5 hPa 0,0 l/m 0 min 0 min 0 W/m 3,2 km/h (1 Bft) 97,87 %
14.10.2022 05:56 12,5 C 11,7 C 8,9 C 99 % 1014,5 hPa 0,0 l/m 0 min 2 min 0 W/m 6,4 km/h (2 Bft) 97,87 %
14.10.2022 05:58 12,5 C 11,7 C 9,4 C 99 % 1014,5 hPa 0,0 l/m 0 min 2 min 0 W/m 3,2 km/h (1 Bft) 97,87 %
14.10.2022 06:00 12,5 C 11,7 C 9,4 C 99 % 1014,6 hPa 0,2 l/m 0 min 0 min 0 W/m 0,0 km/h (0 Bft) 95,65 %
14.10.2022 06:02 12,5 C 11,7 C 9,4 C 99 % 1014,5 hPa 0,0 l/m 0 min 0 min 0 W/m 3,2 km/h (1 Bft) 97,87 %
14.10.2022 06:04 12,5 C 11,7 C 9,4 C 99 % 1014,5 hPa 0,0 l/m 0 min 0 min 0 W/m 3,2 km/h (1 Bft) 97,87 %
14.10.2022 06:08 12,5 C 11,7 C 9,4 C 99 % 1014,5 hPa 0,0 l/m 0 min 4 min 0 W/m 3,2 km/h (1 Bft) 96,00 %
14.10.2022 06:10 12,4 C 11,7 C 9,4 C 99 % 1014,5 hPa 0,0 l/m 0 min 0 min 0 W/m 3,2 km/h (1 Bft) 97,87 %
14.10.2022 06:12 12,4 C 11,7 C 9,4 C 99 % 1014,6 hPa 0,0 l/m 0 min 0 min 0 W/m 3,2 km/h (1 Bft) 97,87 %
14.10.2022 06:14 12,5 C 11,7 C 9,4 C 99 % 1014,5 hPa 0,0 l/m 0 min 0 min 0 W/m 6,4 km/h (2 Bft) 97,83 %
14.10.2022 06:16 12,4 C 11,7 C 9,4 C 99 % 1014,5 hPa 0,0 l/m 0 min 0 min 0 W/m 3,2 km/h (1 Bft) 93,62 %
14.10.2022 06:18 12,5 C 11,7 C 9,4 C 99 % 1014,5 hPa 0,0 l/m 0 min 0 min 0 W/m 3,2 km/h (1 Bft) 97,87 %
14.10.2022 06:20 12,4 C 11,7 C 9,4 C 99 % 1014,5 hPa 0,0 l/m 0 min 0 min 0 W/m 6,4 km/h (2 Bft) 97,87 %
14.10.2022 06:22 12,5 C 11,7 C 9,4 C 99 % 1014,4 hPa 0,0 l/m 0 min 0 min 0 W/m 6,4 km/h (2 Bft) 95,74 %
14.10.2022 06:24 12,4 C 11,7 C 9,4 C 99 % 1014,5 hPa 0,0 l/m 0 min 0 min 0 W/m 3,2 km/h (1 Bft) 97,87 %
14.10.2022 06:26 12,4 C 11,7 C 9,4 C 99 % 1014,5 hPa 0,0 l/m 0 min 0 min 0 W/m 6,4 km/h (2 Bft) 97,87 %
14.10.2022 06:28 12,4 C 11,7 C 9,4 C 99 % 1014,5 hPa 0,0 l/m 0 min 0 min 0 W/m 3,2 km/h (1 Bft) 97,83 %
14.10.2022 06:30 12,4 C 11,7 C 9,4 C 99 % 1014,4 hPa 0,0 l/m 0 min 0 min 0 W/m 0,0 km/h (0 Bft) 97,87 %
14.10.2022 06:32 12,4 C 11,7 C 9,4 C 99 % 1014,5 hPa 0,0 l/m 0 min 0 min 0 W/m 3,2 km/h (1 Bft) 97,87 %
14.10.2022 06:34 12,4 C 11,7 C 9,4 C 99 % 1014,4 hPa 0,0 l/m 0 min 0 min 0 W/m 6,4 km/h (2 Bft) 97,87 %
14.10.2022 06:36 12,4 C 11,7 C 9,4 C 99 % 1014,4 hPa 0,0 l/m 0 min 0 min 0 W/m 3,2 km/h (1 Bft) 97,87 %
14.10.2022 06:38 12,4 C 11,7 C 9,4 C 99 % 1014,4 hPa 0,0 l/m 0 min 0 min 0 W/m 3,2 km/h (1 Bft) 100,00 %
14.10.2022 06:40 12,5 C 11,7 C 9,4 C 99 % 1014,4 hPa 0,0 l/m 0 min 0 min 0 W/m 3,2 km/h (1 Bft) 100,00 %
14.10.2022 06:42 12,5 C 11,7 C 9,4 C 99 % 1014,4 hPa 0,0 l/m 0 min 0 min 0 W/m 3,2 km/h (1 Bft) 97,87 %
14.10.2022 06:44 12,4 C 11,7 C 9,4 C 99 % 1014,4 hPa 0,0 l/m 0 min 0 min 0 W/m 3,2 km/h (1 Bft) 100,00 %
14.10.2022 06:46 12,5 C 11,7 C 9,4 C 99 % 1014,3 hPa 0,0 l/m 0 min 0 min 0 W/m 6,4 km/h (2 Bft) 100,00 %
14.10.2022 06:48 12,5 C 11,7 C 9,4 C 99 % 1014,3 hPa 0,0 l/m 0 min 0 min 0 W/m 3,2 km/h (1 Bft) 100,00 %
14.10.2022 06:50 12,5 C 11,7 C 9,4 C 99 % 1014,3 hPa 0,0 l/m 0 min 0 min 0 W/m 3,2 km/h (1 Bft) 100,00 %
14.10.2022 06:52 12,5 C 11,7 C 9,4 C 99 % 1014,3 hPa 0,0 l/m 0 min 0 min 0 W/m 6,4 km/h (2 Bft) 100,00 %
14.10.2022 06:54 12,5 C 11,7 C 9,4 C 99 % 1014,3 hPa 0,0 l/m 0 min 0 min 0 W/m 3,2 km/h (1 Bft) 100,00 %
14.10.2022 06:56 12,5 C 11,7 C 9,4 C 99 % 1014,3 hPa 0,0 l/m 0 min 0 min 0 W/m 3,2 km/h (1 Bft) 100,00 %
14.10.2022 06:58 12,5 C 11,7 C 9,4 C 99 % 1014,2 hPa 0,0 l/m 0 min 0 min 0 W/m 3,2 km/h (1 Bft) 97,87 %
14.10.2022 07:00 12,5 C 11,7 C 9,4 C 99 % 1014,2 hPa 0,0 l/m 0 min 0 min 0 W/m 3,2 km/h (1 Bft) 100,00 %
14.10.2022 07:02 12,5 C 11,7 C 9,4 C 99 % 1014,1 hPa 0,0 l/m 0 min 0 min 0 W/m 3,2 km/h (1 Bft) 97,83 %
14.10.2022 07:04 12,5 C 11,7 C 9,4 C 99 % 1014,2 hPa 0,0 l/m 0 min 0 min 0 W/m 3,2 km/h (1 Bft) 100,00 %
14.10.2022 07:06 12,5 C 11,7 C 9,4 C 99 % 1014,1 hPa 0,0 l/m 0 min 0 min 0 W/m 3,2 km/h (1 Bft) 100,00 %
14.10.2022 07:08 12,5 C 11,7 C 9,4 C 99 % 1014,1 hPa 0,0 l/m 0 min 0 min 0 W/m 3,2 km/h (1 Bft) 97,87 %
14.10.2022 07:10 12,5 C 11,7 C 9,4 C 99 % 1014,1 hPa 0,0 l/m 0 min 0 min 0 W/m 3,2 km/h (1 Bft) 97,87 %
14.10.2022 07:12 12,6 C 11,7 C 9,4 C 99 % 1014,0 hPa 0,0 l/m 0 min 0 min 0 W/m 3,2 km/h (1 Bft) 97,87 %
14.10.2022 07:14 12,5 C 11,7 C 9,4 C 99 % 1014,0 hPa 0,0 l/m 0 min 0 min 0 W/m 3,2 km/h (1 Bft) 95,65 %
14.10.2022 07:16 12,5 C 11,7 C 9,4 C 99 % 1014,0 hPa 0,0 l/m 0 min 0 min 0 W/m 3,2 km/h (1 Bft) 97,87 %
14.10.2022 07:18 12,5 C 11,7 C 9,4 C 99 % 1014,0 hPa 0,0 l/m 0 min 0 min 0 W/m 3,2 km/h (1 Bft) 97,87 %
14.10.2022 07:20 12,5 C 11,7 C 9,4 C 99 % 1014,0 hPa 0,0 l/m 0 min 0 min 0 W/m 3,2 km/h (1 Bft) 97,87 %
14.10.2022 07:22 12,6 C 11,7 C 9,4 C 99 % 1014,0 hPa 0,0 l/m 0 min 0 min 0 W/m 3,2 km/h (1 Bft) 97,87 %
14.10.2022 07:24 12,5 C 11,7 C 9,4 C 99 % 1014,0 hPa 0,0 l/m 0 min 0 min 0 W/m 6,4 km/h (2 Bft) 95,74 %
14.10.2022 07:26 12,5 C 11,7 C 9,4 C 99 % 1014,0 hPa 0,0 l/m 0 min 0 min 0 W/m 6,4 km/h (2 Bft) 97,83 %
14.10.2022 07:28 12,5 C 11,7 C 9,4 C 99 % 1014,0 hPa 0,0 l/m 0 min 0 min 0 W/m 3,2 km/h (1 Bft) 95,74 %
14.10.2022 07:30 12,5 C 11,7 C 9,4 C 99 % 1014,0 hPa 0,0 l/m 0 min 0 min 0 W/m 6,4 km/h (2 Bft) 97,87 %
14.10.2022 07:32 12,5 C 11,7 C 9,4 C 99 % 1013,9 hPa 0,0 l/m 0 min 0 min 0 W/m 3,2 km/h (1 Bft) 97,87 %
14.10.2022 07:34 12,5 C 11,7 C 9,4 C 99 % 1014,0 hPa 0,0 l/m 0 min 0 min 0 W/m 3,2 km/h (1 Bft) 97,87 %
14.10.2022 07:36 12,5 C 11,7 C 9,4 C 99 % 1013,9 hPa 0,0 l/m 0 min 0 min 0 W/m 3,2 km/h (1 Bft) 97,87 %
14.10.2022 07:38 12,5 C 11,7 C 9,4 C 99 % 1014,0 hPa 0,0 l/m 0 min 0 min 0 W/m 3,2 km/h (1 Bft) 97,83 %
14.10.2022 07:40 12,5 C 11,7 C 9,4 C 99 % 1014,0 hPa 0,0 l/m 0 min 0 min 0 W/m 6,4 km/h (2 Bft) 95,74 %
14.10.2022 07:42 12,5 C 11,7 C 9,4 C 99 % 1013,9 hPa 0,0 l/m 0 min 0 min 0 W/m 3,2 km/h (1 Bft) 97,87 %
14.10.2022 07:44 12,5 C 11,7 C 9,4 C 99 % 1013,9 hPa 0,2 l/m 0 min 0 min 0 W/m 6,4 km/h (2 Bft) 100,00 %
14.10.2022 07:46 12,5 C 11,7 C 9,4 C 99 % 1013,9 hPa 0,0 l/m 0 min 0 min 0 W/m 6,4 km/h (2 Bft) 97,87 %
14.10.2022 07:48 12,5 C 11,7 C 9,4 C 99 % 1013,8 hPa 0,0 l/m 0 min 0 min 2 W/m 6,4 km/h (2 Bft) 97,87 %
14.10.2022 07:50 12,5 C 11,7 C 9,4 C 99 % 1013,7 hPa 0,0 l/m 0 min 0 min 6 W/m 3,2 km/h (1 Bft) 78,72 %
14.10.2022 07:52 12,5 C 11,7 C 9,4 C 99 % 1013,8 hPa 0,0 l/m 0 min 0 min 7 W/m 6,4 km/h (2 Bft) 75,00 %
14.10.2022 07:54 12,5 C 11,7 C 9,4 C 99 % 1013,7 hPa 0,0 l/m 0 min 0 min 7 W/m 3,2 km/h (1 Bft) 100,00 %
14.10.2022 07:56 12,5 C 11,7 C 9,4 C 99 % 1013,6 hPa 0,0 l/m 0 min 0 min 9 W/m 6,4 km/h (2 Bft) 93,62 %
14.10.2022 07:58 12,6 C 11,7 C 9,4 C 99 % 1013,6 hPa 0,0 l/m 0 min 0 min 8 W/m 6,4 km/h (2 Bft) 97,87 %
14.10.2022 08:00 12,6 C 11,7 C 9,4 C 99 % 1013,6 hPa 0,0 l/m 0 min 0 min 7 W/m 6,4 km/h (2 Bft) 97,87 %
14.10.2022 08:02 12,6 C 11,7 C 9,4 C 99 % 1013,6 hPa 0,0 l/m 0 min 0 min 7 W/m 3,2 km/h (1 Bft) 97,83 %
14.10.2022 08:04 12,6 C 11,7 C 9,4 C 99 % 1013,6 hPa 0,0 l/m 0 min 0 min 7 W/m 3,2 km/h (1 Bft) 95,74 %
14.10.2022 08:06 12,6 C 11,7 C 9,4 C 99 % 1013,6 hPa 0,0 l/m 0 min 0 min 10 W/m 3,2 km/h (1 Bft) 97,87 %
14.10.2022 08:08 12,6 C 11,7 C 9,4 C 99 % 1013,6 hPa 0,0 l/m 0 min 0 min 14 W/m 3,2 km/h (1 Bft) 97,87 %
14.10.2022 08:10 12,6 C 11,7 C 9,4 C 99 % 1013,6 hPa 0,0 l/m 0 min 0 min 17 W/m 6,4 km/h (2 Bft) 95,74 %
14.10.2022 08:12 12,6 C 11,7 C 9,4 C 99 % 1013,6 hPa 0,0 l/m 0 min 0 min 19 W/m 3,2 km/h (1 Bft) 95,74 %
14.10.2022 08:14 12,6 C 11,7 C 9,4 C 99 % 1013,6 hPa 0,0 l/m 0 min 0 min 18 W/m 6,4 km/h (2 Bft) 97,83 %
14.10.2022 08:16 12,6 C 11,7 C 9,4 C 99 % 1013,6 hPa 0,0 l/m 0 min 0 min 17 W/m 6,4 km/h (2 Bft) 95,74 %
14.10.2022 08:18 12,6 C 12,2 C 9,4 C 99 % 1013,6 hPa 0,0 l/m 0 min 0 min 15 W/m 6,4 km/h (2 Bft) 97,87 %
14.10.2022 08:20 12,6 C 12,2 C 9,4 C 99 % 1013,6 hPa 0,0 l/m 0 min 0 min 12 W/m 3,2 km/h (1 Bft) 93,62 %
14.10.2022 08:22 12,6 C 12,2 C 9,4 C 99 % 1013,6 hPa 0,0 l/m 0 min 0 min 12 W/m 6,4 km/h (2 Bft) 97,87 %
14.10.2022 08:24 12,6 C 12,2 C 9,4 C 99 % 1013,6 hPa 0,0 l/m 0 min 0 min 12 W/m 3,2 km/h (1 Bft) 97,87 %
14.10.2022 08:26 12,6 C 12,2 C 9,4 C 99 % 1013,6 hPa 0,0 l/m 0 min 0 min 12 W/m 6,4 km/h (2 Bft) 91,30 %
14.10.2022 08:28 12,6 C 12,2 C 9,4 C 99 % 1013,6 hPa 0,0 l/m 0 min 0 min 13 W/m 3,2 km/h (1 Bft) 95,74 %
14.10.2022 08:30 12,6 C 12,2 C 9,4 C 99 % 1013,6 hPa 0,0 l/m 0 min 0 min 15 W/m 3,2 km/h (1 Bft) 95,74 %
14.10.2022 08:32 12,6 C 12,2 C 9,4 C 99 % 1013,6 hPa 0,0 l/m 0 min 0 min 16 W/m 6,4 km/h (2 Bft) 95,74 %
14.10.2022 08:34 12,6 C 12,2 C 9,4 C 99 % 1013,6 hPa 0,0 l/m 0 min 0 min 16 W/m 3,2 km/h (1 Bft) 95,74 %
14.10.2022 08:36 12,6 C 12,2 C 9,4 C 99 % 1013,6 hPa 0,0 l/m 0 min 0 min 16 W/m 3,2 km/h (1 Bft) 93,62 %
14.10.2022 08:38 12,7 C 12,2 C 9,4 C 99 % 1013,6 hPa 0,0 l/m 0 min 0 min 15 W/m 3,2 km/h (1 Bft) 91,30 %
14.10.2022 08:40 12,7 C 12,2 C 9,4 C 99 % 1013,6 hPa 0,0 l/m 0 min 0 min 14 W/m 6,4 km/h (2 Bft) 95,74 %
14.10.2022 08:42 12,7 C 12,2 C 9,4 C 99 % 1013,6 hPa 0,0 l/m 0 min 0 min 15 W/m 6,4 km/h (2 Bft) 95,74 %
14.10.2022 08:44 12,7 C 12,2 C 9,4 C 99 % 1013,6 hPa 0,0 l/m 0 min 0 min 16 W/m 6,4 km/h (2 Bft) 97,87 %
14.10.2022 08:46 12,7 C 12,2 C 9,4 C 99 % 1013,6 hPa 0,0 l/m 0 min 0 min 16 W/m 6,4 km/h (2 Bft) 95,74 %
14.10.2022 08:48 12,7 C 12,2 C 9,4 C 99 % 1013,6 hPa 0,0 l/m 0 min 2 min 16 W/m 6,4 km/h (2 Bft) 97,87 %
14.10.2022 08:50 12,7 C 12,2 C 9,4 C 99 % 1013,5 hPa 0,0 l/m 0 min 2 min 17 W/m 6,4 km/h (2 Bft) 95,65 %
14.10.2022 08:52 12,7 C 12,2 C 9,4 C 100 % 1013,5 hPa 0,0 l/m 0 min 0 min 20 W/m 6,4 km/h (2 Bft) 97,87 %
14.10.2022 08:54 12,7 C 12,2 C 9,4 C 100 % 1013,4 hPa 0,2 l/m 0 min 2 min 21 W/m 6,4 km/h (2 Bft) 95,74 %
14.10.2022 08:56 12,7 C 12,2 C 9,4 C 100 % 1013,5 hPa 0,0 l/m 0 min 0 min 21 W/m 6,4 km/h (2 Bft) 97,87 %
14.10.2022 08:58 12,7 C 12,2 C 9,4 C 100 % 1013,4 hPa 0,0 l/m 0 min 0 min 19 W/m 3,2 km/h (1 Bft) 96,00 %
14.10.2022 09:00 12,7 C 12,2 C 9,4 C 100 % 1013,4 hPa 0,0 l/m 0 min 0 min 20 W/m 6,4 km/h (2 Bft) 97,83 %
14.10.2022 09:02 12,7 C 12,2 C 9,4 C 100 % 1013,4 hPa 0,0 l/m 0 min 0 min 23 W/m 12,9 km/h (3 Bft) 89,36 %
14.10.2022 09:04 12,7 C 12,2 C 9,4 C 100 % 1013,4 hPa 0,0 l/m 0 min 0 min 26 W/m 6,4 km/h (2 Bft) 97,87 %
14.10.2022 09:06 12,7 C 12,2 C 9,4 C 100 % 1013,3 hPa 0,0 l/m 0 min 2 min 30 W/m 6,4 km/h (2 Bft) 95,74 %
14.10.2022 09:08 12,7 C 12,2 C 9,4 C 100 % 1013,3 hPa 0,0 l/m 0 min 2 min 34 W/m 3,2 km/h (1 Bft) 95,74 %
14.10.2022 09:10 12,7 C 12,2 C 9,4 C 100 % 1013,3 hPa 0,0 l/m 0 min 0 min 35 W/m 6,4 km/h (2 Bft) 97,87 %
14.10.2022 09:12 12,7 C 12,2 C 9,4 C 100 % 1013,3 hPa 0,0 l/m 0 min 0 min 37 W/m 3,2 km/h (1 Bft) 95,65 %
14.10.2022 09:14 12,7 C 12,2 C 9,4 C 100 % 1013,2 hPa 0,0 l/m 0 min 0 min 37 W/m 6,4 km/h (2 Bft) 97,87 %
14.10.2022 09:16 12,7 C 12,2 C 9,4 C 100 % 1013,3 hPa 0,0 l/m 0 min 0 min 37 W/m 6,4 km/h (2 Bft) 97,87 %
14.10.2022 09:18 12,8 C 12,2 C 9,4 C 100 % 1013,3 hPa 0,0 l/m 0 min 0 min 34 W/m 6,4 km/h (2 Bft) 97,87 %
14.10.2022 09:20 12,8 C 12,2 C 9,4 C 100 % 1013,3 hPa 0,0 l/m 0 min 0 min 32 W/m 3,2 km/h (1 Bft) 97,87 %
14.10.2022 09:22 12,8 C 12,2 C 9,4 C 100 % 1013,3 hPa 0,0 l/m 0 min 0 min 32 W/m 3,2 km/h (1 Bft) 97,87 %
14.10.2022 09:24 12,8 C 12,2 C 9,4 C 100 % 1013,3 hPa 0,0 l/m 0 min 0 min 33 W/m 9,7 km/h (2 Bft) 97,83 %
14.10.2022 09:26 12,8 C 12,2 C 9,4 C 100 % 1013,3 hPa 0,0 l/m 0 min 0 min 38 W/m 3,2 km/h (1 Bft) 97,87 %
14.10.2022 09:28 12,8 C 12,2 C 9,4 C 100 % 1013,3 hPa 0,0 l/m 0 min 0 min 41 W/m 3,2 km/h (1 Bft) 97,87 %
14.10.2022 09:30 12,8 C 12,2 C 10,0 C 100 % 1013,3 hPa 0,0 l/m 0 min 0 min 45 W/m 9,7 km/h (2 Bft) 97,87 %
14.10.2022 09:32 12,8 C 12,2 C 10,0 C 100 % 1013,3 hPa 0,0 l/m 0 min 0 min 48 W/m 6,4 km/h (2 Bft) 95,74 %
14.10.2022 09:34 12,8 C 12,2 C 10,0 C 100 % 1013,2 hPa 0,0 l/m 0 min 0 min 49 W/m 6,4 km/h (2 Bft) 95,74 %
14.10.2022 09:36 12,8 C 12,2 C 10,0 C 100 % 1013,2 hPa 0,0 l/m 0 min 0 min 50 W/m 6,4 km/h (2 Bft) 97,83 %
14.10.2022 09:38 12,8 C 12,2 C 10,0 C 100 % 1013,3 hPa 0,0 l/m 0 min 0 min 48 W/m 12,9 km/h (3 Bft) 97,87 %
14.10.2022 09:40 12,8 C 12,2 C 10,0 C 100 % 1013,2 hPa 0,0 l/m 0 min 0 min 51 W/m 6,4 km/h (2 Bft) 97,87 %
14.10.2022 09:42 12,8 C 12,2 C 10,0 C 100 % 1013,3 hPa 0,0 l/m 0 min 0 min 51 W/m 12,9 km/h (3 Bft) 100,00 %
14.10.2022 09:44 12,9 C 12,2 C 10,0 C 99 % 1013,3 hPa 0,0 l/m 0 min 0 min 54 W/m 16,1 km/h (3 Bft) 97,87 %
14.10.2022 09:46 12,9 C 12,2 C 10,0 C 100 % 1013,3 hPa 0,0 l/m 0 min 0 min 58 W/m 12,9 km/h (3 Bft) 100,00 %
14.10.2022 09:48 12,9 C 12,2 C 10,0 C 100 % 1013,3 hPa 0,0 l/m 0 min 0 min 54 W/m 3,2 km/h (1 Bft) 97,83 %
14.10.2022 09:50 12,9 C 12,2 C 10,0 C 100 % 1013,4 hPa 0,0 l/m 0 min 0 min 53 W/m 3,2 km/h (1 Bft) 100,00 %
14.10.2022 09:52 12,9 C 12,2 C 10,0 C 100 % 1013,3 hPa 0,0 l/m 0 min 0 min 55 W/m 12,9 km/h (3 Bft) 97,87 %
14.10.2022 09:54 12,9 C 12,8 C 10,0 C 100 % 1013,4 hPa 0,0 l/m 0 min 0 min 61 W/m 3,2 km/h (1 Bft) 100,00 %
14.10.2022 09:56 12,9 C 12,8 C 10,0 C 100 % 1013,3 hPa 0,0 l/m 0 min 0 min 70 W/m 3,2 km/h (1 Bft) 100,00 %
14.10.2022 09:58 12,9 C 12,8 C 10,0 C 100 % 1013,3 hPa 0,0 l/m 0 min 0 min 78 W/m 3,2 km/h (1 Bft) 100,00 %
14.10.2022 10:00 13,0 C 12,8 C 10,0 C 100 % 1013,3 hPa 0,0 l/m 0 min 0 min 84 W/m 3,2 km/h (1 Bft) 97,83 %
14.10.2022 10:02 13,0 C 12,8 C 10,0 C 100 % 1013,3 hPa 0,0 l/m 0 min 0 min 82 W/m 3,2 km/h (1 Bft) 100,00 %
14.10.2022 10:04 13,0 C 12,8 C 10,0 C 100 % 1013,3 hPa 0,0 l/m 0 min 0 min 76 W/m 3,2 km/h (1 Bft) 100,00 %
14.10.2022 10:06 13,1 C 12,8 C 10,0 C 100 % 1013,3 hPa 0,0 l/m 0 min 0 min 72 W/m 12,9 km/h (3 Bft) 97,87 %
14.10.2022 10:08 13,1 C 12,8 C 10,0 C 100 % 1013,2 hPa 0,0 l/m 0 min 0 min 78 W/m 3,2 km/h (1 Bft) 95,74 %
14.10.2022 10:10 13,1 C 12,8 C 10,0 C 100 % 1013,2 hPa 0,0 l/m 0 min 0 min 84 W/m 6,4 km/h (2 Bft) 100,00 %
14.10.2022 10:12 13,1 C 12,8 C 10,0 C 100 % 1013,1 hPa 0,0 l/m 0 min 0 min 85 W/m 6,4 km/h (2 Bft) 100,00 %
14.10.2022 10:14 13,1 C 12,8 C 10,0 C 100 % 1013,1 hPa 0,0 l/m 0 min 0 min 83 W/m 6,4 km/h (2 Bft) 100,00 %
14.10.2022 10:16 13,1 C 12,8 C 10,0 C 100 % 1013,1 hPa 0,0 l/m 0 min 0 min 83 W/m 6,4 km/h (2 Bft) 100,00 %
14.10.2022 10:18 13,2 C 12,8 C 10,0 C 100 % 1013,1 hPa 0,0 l/m 0 min 0 min 80 W/m 12,9 km/h (3 Bft) 97,87 %
14.10.2022 10:20 13,2 C 12,8 C 10,0 C 100 % 1013,1 hPa 0,0 l/m 0 min 0 min 86 W/m 6,4 km/h (2 Bft) 97,87 %
14.10.2022 10:22 13,2 C 12,8 C 10,0 C 100 % 1013,0 hPa 0,0 l/m 0 min 0 min 98 W/m 3,2 km/h (1 Bft) 100,00 %
14.10.2022 10:24 13,2 C 12,8 C 10,0 C 100 % 1013,0 hPa 0,0 l/m 0 min 0 min 102 W/m 6,4 km/h (2 Bft) 100,00 %
14.10.2022 10:26 13,2 C 13,3 C 10,6 C 100 % 1013,0 hPa 0,0 l/m 0 min 0 min 104 W/m 12,9 km/h (3 Bft) 100,00 %
14.10.2022 10:28 13,3 C 13,3 C 10,6 C 100 % 1013,0 hPa 0,0 l/m 0 min 0 min 105 W/m 12,9 km/h (3 Bft) 97,87 %
14.10.2022 10:30 13,3 C 13,3 C 10,6 C 100 % 1012,9 hPa 0,0 l/m 0 min 0 min 107 W/m 12,9 km/h (3 Bft) 100,00 %
14.10.2022 10:32 13,3 C 13,3 C 10,6 C 100 % 1012,9 hPa 0,0 l/m 0 min 0 min 113 W/m 6,4 km/h (2 Bft) 100,00 %
14.10.2022 10:34 13,3 C 13,3 C 10,6 C 100 % 1012,9 hPa 0,0 l/m 0 min 0 min 113 W/m 6,4 km/h (2 Bft) 100,00 %
14.10.2022 10:36 13,3 C 13,3 C 10,6 C 100 % 1012,9 hPa 0,0 l/m 0 min 0 min 113 W/m 6,4 km/h (2 Bft) 97,83 %
14.10.2022 10:38 13,4 C 13,3 C 10,6 C 100 % 1012,9 hPa 0,0 l/m 0 min 0 min 107 W/m 3,2 km/h (1 Bft) 100,00 %
14.10.2022 10:40 13,4 C 13,3 C 10,6 C 100 % 1012,9 hPa 0,0 l/m 0 min 0 min 101 W/m 6,4 km/h (2 Bft) 100,00 %
14.10.2022 10:42 13,4 C 13,3 C 10,6 C 100 % 1012,9 hPa 0,0 l/m 0 min 0 min 97 W/m 16,1 km/h (3 Bft) 100,00 %
14.10.2022 10:44 13,4 C 13,3 C 10,6 C 100 % 1012,9 hPa 0,0 l/m 0 min 0 min 93 W/m 6,4 km/h (2 Bft) 97,87 %
14.10.2022 10:46 13,4 C 13,3 C 10,6 C 100 % 1012,9 hPa 0,0 l/m 0 min 0 min 85 W/m 6,4 km/h (2 Bft) 95,74 %
14.10.2022 10:48 13,4 C 13,3 C 10,6 C 100 % 1012,9 hPa 0,0 l/m 0 min 0 min 79 W/m 12,9 km/h (3 Bft) 97,83 %
14.10.2022 10:50 13,5 C 13,3 C 10,6 C 100 % 1012,9 hPa 0,0 l/m 0 min 0 min 71 W/m 6,4 km/h (2 Bft) 97,87 %
14.10.2022 10:52 13,5 C 13,3 C 10,6 C 100 % 1012,9 hPa 0,0 l/m 0 min 0 min 70 W/m 6,4 km/h (2 Bft) 97,87 %
14.10.2022 10:54 13,5 C 13,3 C 10,6 C 100 % 1012,8 hPa 0,0 l/m 0 min 0 min 75 W/m 12,9 km/h (3 Bft) 91,49 %
14.10.2022 10:56 13,4 C 13,3 C 10,6 C 100 % 1012,8 hPa 0,0 l/m 0 min 0 min 85 W/m 12,9 km/h (3 Bft) 95,74 %
14.10.2022 10:58 13,4 C 13,3 C 10,6 C 100 % 1012,8 hPa 0,0 l/m 0 min 0 min 92 W/m 6,4 km/h (2 Bft) 97,87 %
14.10.2022 11:00 13,5 C 13,3 C 10,6 C 100 % 1012,7 hPa 0,0 l/m 0 min 0 min 97 W/m 9,7 km/h (2 Bft) 95,65 %
14.10.2022 11:02 13,5 C 13,3 C 10,6 C 100 % 1012,6 hPa 0,0 l/m 0 min 0 min 110 W/m 6,4 km/h (2 Bft) 95,74 %
14.10.2022 11:04 13,5 C 13,3 C 10,6 C 100 % 1012,7 hPa 0,0 l/m 0 min 0 min 115 W/m 12,9 km/h (3 Bft) 93,62 %
14.10.2022 11:06 13,6 C 13,3 C 10,6 C 100 % 1012,8 hPa 0,0 l/m 0 min 0 min 119 W/m 12,9 km/h (3 Bft) 89,36 %
14.10.2022 11:08 13,6 C 13,3 C 10,6 C 100 % 1012,8 hPa 0,0 l/m 0 min 0 min 113 W/m 12,9 km/h (3 Bft) 93,62 %
14.10.2022 11:10 13,6 C 13,9 C 10,6 C 100 % 1012,7 hPa 0,0 l/m 0 min 0 min 106 W/m 6,4 km/h (2 Bft) 93,62 %
14.10.2022 11:12 13,6 C 13,9 C 10,6 C 100 % 1012,7 hPa 0,0 l/m 0 min 0 min 101 W/m 6,4 km/h (2 Bft) 91,30 %
14.10.2022 11:14 13,6 C 13,9 C 10,6 C 100 % 1012,6 hPa 0,0 l/m 0 min 0 min 90 W/m 6,4 km/h (2 Bft) 93,62 %
14.10.2022 11:16 13,6 C 13,9 C 10,6 C 100 % 1012,6 hPa 0,0 l/m 0 min 0 min 79 W/m 6,4 km/h (2 Bft) 93,62 %
14.10.2022 11:18 13,6 C 13,9 C 10,6 C 100 % 1012,6 hPa 0,0 l/m 0 min 0 min 76 W/m 6,4 km/h (2 Bft) 93,62 %
14.10.2022 11:20 13,7 C 13,9 C 10,6 C 100 % 1012,6 hPa 0,0 l/m 0 min 0 min 76 W/m 12,9 km/h (3 Bft) 91,49 %
14.10.2022 11:22 13,6 C 13,3 C 10,6 C 100 % 1012,6 hPa 0,0 l/m 0 min 0 min 77 W/m 12,9 km/h (3 Bft) 93,62 %
14.10.2022 11:24 13,6 C 13,3 C 10,6 C 100 % 1012,6 hPa 0,0 l/m 0 min 0 min 75 W/m 6,4 km/h (2 Bft) 93,48 %
14.10.2022 11:26 13,7 C 13,3 C 10,6 C 100 % 1012,6 hPa 0,0 l/m 0 min 0 min 81 W/m 6,4 km/h (2 Bft) 93,62 %
14.10.2022 11:28 13,7 C 13,9 C 10,6 C 100 % 1012,6 hPa 0,0 l/m 0 min 0 min 97 W/m 6,4 km/h (2 Bft) 93,62 %
14.10.2022 11:30 13,7 C 13,9 C 10,6 C 100 % 1012,6 hPa 0,0 l/m 0 min 0 min 101 W/m 6,4 km/h (2 Bft) 91,49 %
14.10.2022 11:32 13,7 C 13,9 C 10,6 C 100 % 1012,6 hPa 0,0 l/m 0 min 0 min 92 W/m 12,9 km/h (3 Bft) 95,74 %
14.10.2022 11:34 13,7 C 13,9 C 10,6 C 100 % 1012,6 hPa 0,0 l/m 0 min 0 min 95 W/m 9,7 km/h (2 Bft) 93,48 %
14.10.2022 11:36 13,7 C 13,9 C 10,6 C 100 % 1012,6 hPa 0,0 l/m 0 min 0 min 105 W/m 6,4 km/h (2 Bft) 93,62 %
14.10.2022 11:38 13,7 C 13,9 C 10,6 C 100 % 1012,6 hPa 0,0 l/m 0 min 0 min 109 W/m 9,7 km/h (2 Bft) 95,74 %
14.10.2022 11:40 13,8 C 13,9 C 10,6 C 100 % 1012,6 hPa 0,0 l/m 0 min 0 min 114 W/m 16,1 km/h (3 Bft) 95,92 %
14.10.2022 11:42 13,8 C 13,9 C 10,6 C 100 % 1012,5 hPa 0,0 l/m 0 min 0 min 122 W/m 12,9 km/h (3 Bft) 97,83 %
14.10.2022 11:44 13,8 C 13,9 C 10,6 C 100 % 1012,5 hPa 0,0 l/m 0 min 0 min 130 W/m 12,9 km/h (3 Bft) 100,00 %
14.10.2022 11:46 13,8 C 13,9 C 10,6 C 100 % 1012,6 hPa 0,0 l/m 0 min 0 min 124 W/m 9,7 km/h (2 Bft) 100,00 %
14.10.2022 11:48 13,9 C 13,9 C 10,6 C 100 % 1012,5 hPa 0,0 l/m 0 min 0 min 113 W/m 6,4 km/h (2 Bft) 97,87 %
14.10.2022 11:50 13,9 C 13,9 C 10,6 C 100 % 1012,5 hPa 0,0 l/m 0 min 0 min 106 W/m 9,7 km/h (2 Bft) 100,00 %
14.10.2022 11:52 13,9 C 13,9 C 11,1 C 100 % 1012,5 hPa 0,0 l/m 0 min 0 min 100 W/m 6,4 km/h (2 Bft) 100,00 %
14.10.2022 11:54 13,9 C 13,9 C 11,1 C 100 % 1012,5 hPa 0,0 l/m 0 min 0 min 93 W/m 6,4 km/h (2 Bft) 100,00 %
14.10.2022 11:56 13,9 C 13,9 C 11,1 C 100 % 1012,5 hPa 0,0 l/m 0 min 0 min 88 W/m 12,9 km/h (3 Bft) 100,00 %
14.10.2022 11:58 14,0 C 13,9 C 10,6 C 100 % 1012,5 hPa 0,0 l/m 0 min 0 min 85 W/m 12,9 km/h (3 Bft) 100,00 %
14.10.2022 12:00 14,0 C 13,9 C 10,6 C 100 % 1012,5 hPa 0,0 l/m 0 min 0 min 88 W/m 12,9 km/h (3 Bft) 100,00 %
14.10.2022 12:02 14,0 C 13,9 C 10,6 C 100 % 1012,5 hPa 0,0 l/m 0 min 0 min 93 W/m 6,4 km/h (2 Bft) 100,00 %
14.10.2022 12:04 14,0 C 13,9 C 11,1 C 100 % 1012,4 hPa 0,0 l/m 0 min 0 min 97 W/m 6,4 km/h (2 Bft) 100,00 %
14.10.2022 12:08 14,1 C 13,9 C 11,1 C 100 % 1012,3 hPa 0,0 l/m 0 min 0 min 98 W/m 6,4 km/h (2 Bft) 100,00 %
14.10.2022 12:10 14,1 C 13,9 C 11,1 C 100 % 1012,3 hPa 0,0 l/m 0 min 0 min 100 W/m 12,9 km/h (3 Bft) 97,83 %
14.10.2022 12:12 14,1 C 13,9 C 11,1 C 100 % 1012,3 hPa 0,0 l/m 0 min 0 min 102 W/m 9,7 km/h (2 Bft) 100,00 %
14.10.2022 12:14 14,1 C 13,9 C 11,1 C 100 % 1012,3 hPa 0,0 l/m 0 min 0 min 104 W/m 12,9 km/h (3 Bft) 100,00 %
14.10.2022 12:16 14,2 C 13,9 C 11,1 C 100 % 1012,3 hPa 0,0 l/m 0 min 0 min 111 W/m 6,4 km/h (2 Bft) 100,00 %
14.10.2022 12:18 14,2 C 14,4 C 11,1 C 100 % 1012,3 hPa 0,0 l/m 0 min 0 min 105 W/m 9,7 km/h (2 Bft) 100,00 %
14.10.2022 12:20 14,2 C 14,4 C 11,1 C 100 % 1012,3 hPa 0,0 l/m 0 min 0 min 94 W/m 12,9 km/h (3 Bft) 100,00 %
14.10.2022 12:22 14,3 C 14,4 C 11,1 C 100 % 1012,3 hPa 0,0 l/m 0 min 0 min 96 W/m 9,7 km/h (2 Bft) 97,83 %
14.10.2022 12:24 14,3 C 14,4 C 11,1 C 99 % 1012,2 hPa 0,0 l/m 0 min 0 min 101 W/m 12,9 km/h (3 Bft) 100,00 %
14.10.2022 12:26 14,3 C 14,4 C 11,1 C 99 % 1012,2 hPa 0,0 l/m 0 min 0 min 105 W/m 16,1 km/h (3 Bft) 95,74 %
14.10.2022 12:28 14,3 C 14,4 C 11,1 C 99 % 1012,2 hPa 0,0 l/m 0 min 0 min 109 W/m 9,7 km/h (2 Bft) 100,00 %
14.10.2022 12:30 14,3 C 14,4 C 11,1 C 99 % 1012,2 hPa 0,0 l/m 0 min 0 min 113 W/m 12,9 km/h (3 Bft) 100,00 %
14.10.2022 12:32 14,3 C 14,4 C 11,1 C 99 % 1012,2 hPa 0,0 l/m 0 min 0 min 114 W/m 9,7 km/h (2 Bft) 100,00 %
14.10.2022 12:34 14,3 C 14,4 C 11,1 C 99 % 1012,2 hPa 0,0 l/m 0 min 0 min 110 W/m 16,1 km/h (3 Bft) 100,00 %
14.10.2022 12:36 14,3 C 14,4 C 11,1 C 99 % 1012,2 hPa 0,0 l/m 0 min 0 min 113 W/m 12,9 km/h (3 Bft) 100,00 %
14.10.2022 12:38 14,3 C 14,4 C 11,1 C 99 % 1012,2 hPa 0,0 l/m 0 min 0 min 121 W/m 16,1 km/h (3 Bft) 100,00 %
14.10.2022 12:40 14,3 C 14,4 C 11,1 C 99 % 1012,2 hPa 0,0 l/m 0 min 0 min 125 W/m 16,1 km/h (3 Bft) 97,87 %
14.10.2022 12:42 14,3 C 14,4 C 11,1 C 99 % 1012,2 hPa 0,0 l/m 0 min 0 min 122 W/m 6,4 km/h (2 Bft) 97,87 %
14.10.2022 12:44 14,4 C 14,4 C 11,1 C 99 % 1012,1 hPa 0,0 l/m 0 min 0 min 117 W/m 12,9 km/h (3 Bft) 97,87 %
14.10.2022 12:46 14,4 C 14,4 C 11,1 C 99 % 1012,1 hPa 0,0 l/m 0 min 0 min 107 W/m 12,9 km/h (3 Bft) 100,00 %
14.10.2022 12:48 14,4 C 14,4 C 11,1 C 99 % 1012,1 hPa 0,0 l/m 0 min 0 min 92 W/m 6,4 km/h (2 Bft) 100,00 %
14.10.2022 12:50 14,5 C 14,4 C 11,1 C 99 % 1012,1 hPa 0,0 l/m 0 min 0 min 84 W/m 6,4 km/h (2 Bft) 100,00 %
14.10.2022 12:52 14,5 C 13,9 C 11,1 C 99 % 1012,1 hPa 0,0 l/m 0 min 0 min 74 W/m 6,4 km/h (2 Bft) 100,00 %
14.10.2022 12:54 14,5 C 13,9 C 11,1 C 99 % 1012,0 hPa 0,0 l/m 0 min 0 min 62 W/m 19,3 km/h (3 Bft) 100,00 %
14.10.2022 12:56 14,5 C 13,9 C 11,1 C 99 % 1012,0 hPa 0,0 l/m 0 min 0 min 54 W/m 19,3 km/h (3 Bft) 100,00 %
14.10.2022 12:58 14,4 C 13,9 C 11,1 C 99 % 1012,0 hPa 0,0 l/m 0 min 2 min 49 W/m 6,4 km/h (2 Bft) 97,87 %
14.10.2022 13:00 14,4 C 13,9 C 11,1 C 99 % 1012,0 hPa 0,0 l/m 0 min 2 min 48 W/m 12,9 km/h (3 Bft) 100,00 %
14.10.2022 13:02 14,4 C 13,9 C 11,1 C 99 % 1011,9 hPa 0,2 l/m 0 min 2 min 47 W/m 6,4 km/h (2 Bft) 97,87 %
14.10.2022 13:04 14,4 C 13,9 C 11,1 C 99 % 1011,9 hPa 0,0 l/m 0 min 2 min 42 W/m 6,4 km/h (2 Bft) 97,87 %
14.10.2022 13:06 14,4 C 13,9 C 11,1 C 99 % 1011,9 hPa 0,2 l/m 0 min 2 min 43 W/m 16,1 km/h (3 Bft) 96,55 %
14.10.2022 13:08 14,4 C 13,9 C 11,1 C 99 % 1011,9 hPa 0,4 l/m 0 min 2 min 46 W/m 3,2 km/h (1 Bft) 97,14 %
14.10.2022 13:10 14,4 C 13,9 C 11,1 C 99 % 1011,9 hPa 0,2 l/m 0 min 2 min 48 W/m 6,4 km/h (2 Bft) 97,87 %
14.10.2022 13:12 14,4 C 13,9 C 11,1 C 99 % 1011,9 hPa 0,2 l/m 0 min 2 min 47 W/m 6,4 km/h (2 Bft) 97,87 %
14.10.2022 13:14 14,4 C 13,9 C 11,1 C 99 % 1011,9 hPa 0,0 l/m 0 min 2 min 53 W/m 6,4 km/h (2 Bft) 97,87 %
14.10.2022 13:16 14,4 C 13,9 C 11,1 C 99 % 1011,8 hPa 0,2 l/m 0 min 2 min 61 W/m 12,9 km/h (3 Bft) 97,87 %
14.10.2022 13:18 14,3 C 13,9 C 11,1 C 99 % 1011,7 hPa 0,0 l/m 0 min 2 min 72 W/m 12,9 km/h (3 Bft) 97,87 %
14.10.2022 13:20 14,3 C 13,9 C 11,1 C 99 % 1011,8 hPa 0,0 l/m 0 min 0 min 80 W/m 3,2 km/h (1 Bft) 97,83 %
14.10.2022 13:22 14,4 C 13,9 C 11,1 C 99 % 1011,8 hPa 0,0 l/m 0 min 0 min 77 W/m 6,4 km/h (2 Bft) 95,74 %
14.10.2022 13:24 14,4 C 13,9 C 11,1 C 99 % 1011,8 hPa 0,0 l/m 0 min 0 min 78 W/m 12,9 km/h (3 Bft) 95,74 %
14.10.2022 13:26 14,4 C 13,9 C 11,1 C 99 % 1011,7 hPa 0,0 l/m 0 min 0 min 77 W/m 6,4 km/h (2 Bft) 97,87 %
14.10.2022 13:28 14,4 C 13,9 C 11,1 C 99 % 1011,7 hPa 0,0 l/m 0 min 0 min 77 W/m 6,4 km/h (2 Bft) 97,87 %
14.10.2022 13:30 14,4 C 13,9 C 11,1 C 99 % 1011,7 hPa 0,0 l/m 0 min 2 min 84 W/m 6,4 km/h (2 Bft) 97,87 %
14.10.2022 13:32 14,5 C 13,9 C 11,1 C 99 % 1011,6 hPa 0,0 l/m 0 min 2 min 88 W/m 3,2 km/h (1 Bft) 95,65 %
14.10.2022 13:34 14,5 C 13,9 C 11,1 C 99 % 1011,6 hPa 0,0 l/m 0 min 2 min 86 W/m 3,2 km/h (1 Bft) 93,62 %
14.10.2022 13:36 14,5 C 13,9 C 11,1 C 99 % 1011,6 hPa 0,0 l/m 0 min 0 min 91 W/m 6,4 km/h (2 Bft) 94,92 %
14.10.2022 13:38 14,5 C 13,9 C 11,1 C 99 % 1011,6 hPa 0,0 l/m 0 min 2 min 99 W/m 9,7 km/h (2 Bft) 97,56 %
14.10.2022 13:40 14,6 C 13,9 C 11,1 C 99 % 1011,6 hPa 0,0 l/m 0 min 2 min 98 W/m 9,7 km/h (2 Bft) 95,74 %
14.10.2022 13:42 14,6 C 13,9 C 11,1 C 99 % 1011,5 hPa 0,0 l/m 0 min 2 min 109 W/m 6,4 km/h (2 Bft) 95,74 %
14.10.2022 13:44 14,6 C 13,9 C 11,1 C 99 % 1011,4 hPa 0,0 l/m 0 min 0 min 119 W/m 6,4 km/h (2 Bft) 96,00 %
14.10.2022 13:46 14,6 C 13,9 C 11,1 C 99 % 1011,5 hPa 0,0 l/m 0 min 0 min 102 W/m 3,2 km/h (1 Bft) 97,83 %
14.10.2022 13:48 14,6 C 13,9 C 11,1 C 99 % 1011,5 hPa 0,0 l/m 0 min 0 min 87 W/m 6,4 km/h (2 Bft) 96,00 %
14.10.2022 13:50 14,6 C 13,9 C 11,1 C 99 % 1011,4 hPa 0,0 l/m 0 min 0 min 91 W/m 12,9 km/h (3 Bft) 97,87 %
14.10.2022 13:52 14,6 C 13,9 C 11,1 C 99 % 1011,4 hPa 0,0 l/m 0 min 0 min 99 W/m 6,4 km/h (2 Bft) 93,62 %
14.10.2022 13:54 14,6 C 13,9 C 11,1 C 99 % 1011,3 hPa 0,2 l/m 0 min 2 min 127 W/m 6,4 km/h (2 Bft) 91,30 %
14.10.2022 13:56 14,6 C 13,9 C 11,1 C 99 % 1011,4 hPa 0,0 l/m 0 min 0 min 123 W/m 12,9 km/h (3 Bft) 93,62 %
14.10.2022 13:58 14,6 C 13,9 C 11,1 C 99 % 1011,3 hPa 0,0 l/m 0 min 0 min 102 W/m 6,4 km/h (2 Bft) 95,74 %
14.10.2022 14:00 14,6 C 13,9 C 11,1 C 99 % 1011,4 hPa 0,0 l/m 0 min 0 min 90 W/m 6,4 km/h (2 Bft) 93,62 %
14.10.2022 14:02 14,7 C 13,9 C 11,1 C 99 % 1011,4 hPa 0,0 l/m 0 min 0 min 81 W/m 6,4 km/h (2 Bft) 93,62 %
14.10.2022 14:04 14,7 C 13,9 C 11,1 C 99 % 1011,4 hPa 0,0 l/m 0 min 0 min 58 W/m 12,9 km/h (3 Bft) 95,65 %
14.10.2022 14:06 14,7 C 13,9 C 11,1 C 99 % 1011,4 hPa 0,0 l/m 0 min 0 min 57 W/m 6,4 km/h (2 Bft) 93,62 %
14.10.2022 14:08 14,7 C 13,9 C 11,1 C 99 % 1011,4 hPa 0,0 l/m 0 min 0 min 80 W/m 9,7 km/h (2 Bft) 95,74 %
14.10.2022 14:10 14,7 C 13,9 C 11,1 C 99 % 1011,4 hPa 0,0 l/m 0 min 0 min 68 W/m 12,9 km/h (3 Bft) 95,74 %
14.10.2022 14:12 14,7 C 13,9 C 11,1 C 99 % 1011,3 hPa 0,0 l/m 0 min 0 min 54 W/m 3,2 km/h (1 Bft) 95,74 %
14.10.2022 14:14 14,7 C 13,9 C 11,1 C 99 % 1011,3 hPa 0,0 l/m 0 min 0 min 58 W/m 6,4 km/h (2 Bft) 93,62 %
14.10.2022 14:16 14,7 C 13,9 C 11,1 C 99 % 1011,3 hPa 0,0 l/m 0 min 0 min 63 W/m 6,4 km/h (2 Bft) 93,48 %
14.10.2022 14:18 14,7 C 13,9 C 11,7 C 99 % 1011,2 hPa 0,0 l/m 0 min 0 min 71 W/m 9,7 km/h (2 Bft) 97,87 %
14.10.2022 14:20 14,7 C 13,9 C 11,7 C 99 % 1011,2 hPa 0,0 l/m 0 min 0 min 64 W/m 6,4 km/h (2 Bft) 97,87 %
14.10.2022 14:22 14,7 C 13,9 C 11,7 C 99 % 1011,1 hPa 0,0 l/m 0 min 0 min 64 W/m 6,4 km/h (2 Bft) 91,49 %
14.10.2022 14:24 14,7 C 13,9 C 11,7 C 99 % 1011,1 hPa 0,0 l/m 0 min 0 min 58 W/m 12,9 km/h (3 Bft) 97,87 %
14.10.2022 14:26 14,7 C 14,4 C 11,7 C 99 % 1011,1 hPa 0,0 l/m 0 min 0 min 66 W/m 6,4 km/h (2 Bft) 97,87 %
14.10.2022 14:28 14,8 C 14,4 C 11,7 C 99 % 1011,0 hPa 0,0 l/m 0 min 0 min 87 W/m 6,4 km/h (2 Bft) 97,83 %
14.10.2022 14:30 14,8 C 14,4 C 11,7 C 99 % 1011,0 hPa 0,0 l/m 0 min 0 min 120 W/m 9,7 km/h (2 Bft) 93,62 %
14.10.2022 14:32 14,8 C 14,4 C 11,7 C 99 % 1011,0 hPa 0,0 l/m 0 min 0 min 118 W/m 12,9 km/h (3 Bft) 100,00 %
14.10.2022 14:34 14,8 C 14,4 C 11,7 C 99 % 1011,0 hPa 0,0 l/m 0 min 0 min 123 W/m 9,7 km/h (2 Bft) 100,00 %
14.10.2022 14:36 14,8 C 14,4 C 11,7 C 99 % 1010,9 hPa 0,0 l/m 0 min 2 min 107 W/m 6,4 km/h (2 Bft) 100,00 %
14.10.2022 14:38 14,8 C 14,4 C 11,7 C 99 % 1010,9 hPa 0,0 l/m 0 min 0 min 95 W/m 12,9 km/h (3 Bft) 97,87 %
14.10.2022 14:40 14,8 C 14,4 C 11,7 C 99 % 1010,9 hPa 0,0 l/m 0 min 0 min 109 W/m 3,2 km/h (1 Bft) 100,00 %
14.10.2022 14:42 14,9 C 14,4 C 11,7 C 99 % 1010,9 hPa 0,0 l/m 0 min 0 min 117 W/m 3,2 km/h (1 Bft) 100,00 %
14.10.2022 14:44 14,9 C 14,4 C 11,7 C 99 % 1010,8 hPa 0,0 l/m 0 min 0 min 103 W/m 6,4 km/h (2 Bft) 97,87 %
14.10.2022 14:46 14,9 C 14,4 C 11,7 C 99 % 1010,8 hPa 0,0 l/m 0 min 0 min 122 W/m 12,9 km/h (3 Bft) 100,00 %
14.10.2022 14:48 14,9 C 14,4 C 11,7 C 99 % 1010,8 hPa 0,0 l/m 0 min 0 min 149 W/m 12,9 km/h (3 Bft) 100,00 %
14.10.2022 14:50 14,9 C 14,4 C 11,7 C 99 % 1010,8 hPa 0,0 l/m 0 min 0 min 136 W/m 6,4 km/h (2 Bft) 97,87 %
14.10.2022 14:52 14,9 C 14,4 C 11,7 C 99 % 1010,8 hPa 0,0 l/m 0 min 0 min 129 W/m 9,7 km/h (2 Bft) 95,74 %
14.10.2022 14:54 15,0 C 14,4 C 11,7 C 99 % 1010,7 hPa 0,0 l/m 0 min 0 min 119 W/m 6,4 km/h (2 Bft) 100,00 %
14.10.2022 14:56 15,0 C 14,4 C 11,7 C 99 % 1010,8 hPa 0,0 l/m 0 min 0 min 81 W/m 6,4 km/h (2 Bft) 97,87 %
14.10.2022 14:58 15,0 C 14,4 C 11,7 C 99 % 1010,6 hPa 0,0 l/m 0 min 0 min 71 W/m 6,4 km/h (2 Bft) 100,00 %
14.10.2022 15:00 15,1 C 14,4 C 11,7 C 99 % 1010,5 hPa 0,0 l/m 0 min 0 min 73 W/m 3,2 km/h (1 Bft) 100,00 %
14.10.2022 15:02 15,1 C 14,4 C 11,7 C 99 % 1010,5 hPa 0,0 l/m 0 min 0 min 71 W/m 3,2 km/h (1 Bft) 100,00 %
14.10.2022 15:04 15,1 C 14,4 C 11,7 C 99 % 1010,5 hPa 0,0 l/m 0 min 0 min 63 W/m 6,4 km/h (2 Bft) 97,87 %
14.10.2022 15:06 15,1 C 14,4 C 11,7 C 99 % 1010,5 hPa 0,0 l/m 0 min 0 min 54 W/m 6,4 km/h (2 Bft) 93,62 %
14.10.2022 15:08 15,1 C 14,4 C 11,7 C 99 % 1010,6 hPa 0,0 l/m 0 min 0 min 41 W/m 6,4 km/h (2 Bft) 97,87 %
14.10.2022 15:10 15,1 C 14,4 C 11,7 C 99 % 1010,5 hPa 0,0 l/m 0 min 0 min 37 W/m 6,4 km/h (2 Bft) 97,87 %
14.10.2022 15:12 15,1 C 14,4 C 11,7 C 99 % 1010,5 hPa 0,0 l/m 0 min 0 min 36 W/m 9,7 km/h (2 Bft) 97,83 %
14.10.2022 15:14 15,1 C 14,4 C 11,7 C 99 % 1010,5 hPa 0,0 l/m 0 min 0 min 33 W/m 6,4 km/h (2 Bft) 97,87 %
14.10.2022 15:16 15,0 C 14,4 C 11,7 C 99 % 1010,5 hPa 0,0 l/m 0 min 0 min 29 W/m 3,2 km/h (1 Bft) 97,87 %
14.10.2022 15:18 15,0 C 14,4 C 11,7 C 99 % 1010,5 hPa 0,0 l/m 0 min 0 min 30 W/m 6,4 km/h (2 Bft) 97,87 %
14.10.2022 15:20 15,0 C 14,4 C 11,7 C 99 % 1010,4 hPa 0,0 l/m 0 min 0 min 30 W/m 9,7 km/h (2 Bft) 95,74 %
14.10.2022 15:22 15,1 C 14,4 C 11,7 C 99 % 1010,5 hPa 0,0 l/m 0 min 0 min 30 W/m 9,7 km/h (2 Bft) 97,83 %
14.10.2022 15:24 15,1 C 14,4 C 11,7 C 99 % 1010,4 hPa 0,2 l/m 0 min 0 min 32 W/m 6,4 km/h (2 Bft) 97,87 %
14.10.2022 15:26 15,1 C 14,4 C 11,7 C 99 % 1010,4 hPa 0,0 l/m 0 min 0 min 31 W/m 3,2 km/h (1 Bft) 95,74 %
14.10.2022 15:28 15,0 C 14,4 C 11,7 C 99 % 1010,4 hPa 0,0 l/m 0 min 0 min 41 W/m 3,2 km/h (1 Bft) 97,87 %
14.10.2022 15:30 15,0 C 14,4 C 11,7 C 99 % 1010,4 hPa 0,0 l/m 0 min 0 min 43 W/m 3,2 km/h (1 Bft) 97,87 %
14.10.2022 15:32 15,0 C 14,4 C 11,7 C 99 % 1010,3 hPa 0,0 l/m 0 min 0 min 50 W/m 12,9 km/h (3 Bft) 97,87 %
14.10.2022 15:34 15,0 C 14,4 C 11,7 C 99 % 1010,3 hPa 0,0 l/m 0 min 0 min 61 W/m 6,4 km/h (2 Bft) 97,83 %
14.10.2022 15:36 15,0 C 14,4 C 11,7 C 99 % 1010,3 hPa 0,0 l/m 0 min 0 min 75 W/m 3,2 km/h (1 Bft) 100,00 %
14.10.2022 15:38 15,0 C 14,4 C 11,7 C 99 % 1010,2 hPa 0,0 l/m 0 min 0 min 71 W/m 6,4 km/h (2 Bft) 97,87 %
14.10.2022 15:40 15,0 C 14,4 C 11,7 C 99 % 1010,3 hPa 0,0 l/m 0 min 0 min 57 W/m 6,4 km/h (2 Bft) 100,00 %
14.10.2022 15:42 15,0 C 14,4 C 11,7 C 99 % 1010,3 hPa 0,0 l/m 0 min 0 min 51 W/m 6,4 km/h (2 Bft) 97,87 %
14.10.2022 15:44 15,0 C 14,4 C 11,7 C 99 % 1010,2 hPa 0,0 l/m 0 min 0 min 54 W/m 6,4 km/h (2 Bft) 100,00 %
14.10.2022 15:46 15,0 C 14,4 C 11,7 C 99 % 1010,1 hPa 0,0 l/m 0 min 0 min 49 W/m 6,4 km/h (2 Bft) 100,00 %
14.10.2022 15:48 15,0 C 14,4 C 11,7 C 99 % 1010,2 hPa 0,0 l/m 0 min 0 min 41 W/m 3,2 km/h (1 Bft) 100,00 %
14.10.2022 15:50 15,0 C 14,4 C 11,7 C 99 % 1010,2 hPa 0,0 l/m 0 min 0 min 48 W/m 6,4 km/h (2 Bft) 97,87 %
14.10.2022 15:52 15,0 C 14,4 C 11,7 C 99 % 1010,2 hPa 0,0 l/m 0 min 0 min 64 W/m 12,9 km/h (3 Bft) 100,00 %
14.10.2022 15:54 15,0 C 14,4 C 11,7 C 99 % 1010,2 hPa 0,0 l/m 0 min 0 min 78 W/m 12,9 km/h (3 Bft) 100,00 %
14.10.2022 15:56 15,0 C 14,4 C 11,7 C 99 % 1010,2 hPa 0,0 l/m 0 min 0 min 76 W/m 6,4 km/h (2 Bft) 100,00 %
14.10.2022 15:58 15,0 C 14,4 C 11,7 C 99 % 1010,2 hPa 0,0 l/m 0 min 0 min 71 W/m 12,9 km/h (3 Bft) 100,00 %
14.10.2022 16:00 15,0 C 14,4 C 11,7 C 99 % 1010,1 hPa 0,0 l/m 0 min 0 min 85 W/m 6,4 km/h (2 Bft) 100,00 %
14.10.2022 16:02 15,0 C 14,4 C 11,7 C 99 % 1010,1 hPa 0,0 l/m 0 min 0 min 88 W/m 6,4 km/h (2 Bft) 100,00 %
14.10.2022 16:04 15,0 C 14,4 C 11,7 C 99 % 1010,2 hPa 0,0 l/m 0 min 0 min 89 W/m 6,4 km/h (2 Bft) 97,87 %
14.10.2022 16:06 15,0 C 14,4 C 11,7 C 99 % 1010,1 hPa 0,0 l/m 0 min 0 min 100 W/m 3,2 km/h (1 Bft) 100,00 %
14.10.2022 16:08 15,1 C 14,4 C 11,7 C 99 % 1010,1 hPa 0,0 l/m 0 min 0 min 88 W/m 6,4 km/h (2 Bft) 100,00 %
14.10.2022 16:10 15,1 C 15,0 C 12,2 C 99 % 1010,1 hPa 0,0 l/m 0 min 0 min 74 W/m 3,2 km/h (1 Bft) 93,48 %
14.10.2022 16:12 15,1 C 14,4 C 11,7 C 99 % 1010,1 hPa 0,0 l/m 0 min 0 min 64 W/m 6,4 km/h (2 Bft) 97,87 %
14.10.2022 16:14 15,1 C 14,4 C 11,7 C 99 % 1010,1 hPa 0,0 l/m 0 min 0 min 57 W/m 16,1 km/h (3 Bft) 100,00 %
14.10.2022 16:16 15,1 C 14,4 C 11,7 C 99 % 1010,1 hPa 0,0 l/m 0 min 0 min 51 W/m 3,2 km/h (1 Bft) 95,74 %
14.10.2022 16:18 15,1 C 14,4 C 11,7 C 99 % 1010,1 hPa 0,0 l/m 0 min 0 min 65 W/m 3,2 km/h (1 Bft) 93,62 %
14.10.2022 16:20 15,1 C 14,4 C 11,7 C 99 % 1010,0 hPa 0,0 l/m 0 min 0 min 78 W/m 6,4 km/h (2 Bft) 97,87 %
14.10.2022 16:22 15,1 C 14,4 C 12,2 C 99 % 1010,0 hPa 0,0 l/m 0 min 0 min 71 W/m 9,7 km/h (2 Bft) 95,65 %
14.10.2022 16:24 15,1 C 15,0 C 12,2 C 99 % 1009,9 hPa 0,0 l/m 0 min 0 min 77 W/m 6,4 km/h (2 Bft) 97,87 %
14.10.2022 16:26 15,2 C 15,0 C 12,2 C 99 % 1009,9 hPa 0,0 l/m 0 min 0 min 80 W/m 9,7 km/h (2 Bft) 95,74 %
14.10.2022 16:28 15,2 C 15,0 C 12,2 C 99 % 1009,9 hPa 0,0 l/m 0 min 0 min 70 W/m 3,2 km/h (1 Bft) 93,62 %
14.10.2022 16:30 15,2 C 15,0 C 12,2 C 99 % 1009,9 hPa 0,0 l/m 0 min 0 min 78 W/m 9,7 km/h (2 Bft) 93,62 %
14.10.2022 16:32 15,2 C 15,0 C 12,2 C 99 % 1009,8 hPa 0,0 l/m 0 min 0 min 69 W/m 12,9 km/h (3 Bft) 95,74 %
14.10.2022 16:34 15,2 C 15,0 C 12,2 C 99 % 1009,8 hPa 0,0 l/m 0 min 0 min 60 W/m 6,4 km/h (2 Bft) 93,48 %
14.10.2022 16:36 15,2 C 15,0 C 12,2 C 99 % 1009,8 hPa 0,0 l/m 0 min 0 min 37 W/m 9,7 km/h (2 Bft) 95,74 %
14.10.2022 16:38 15,3 C 15,0 C 12,2 C 99 % 1009,8 hPa 0,0 l/m 0 min 0 min 30 W/m 6,4 km/h (2 Bft) 95,74 %
14.10.2022 16:40 15,3 C 15,0 C 12,2 C 99 % 1009,9 hPa 0,0 l/m 0 min 0 min 33 W/m 6,4 km/h (2 Bft) 91,49 %
14.10.2022 16:42 15,3 C 15,0 C 12,2 C 99 % 1009,8 hPa 0,0 l/m 0 min 0 min 62 W/m 3,2 km/h (1 Bft) 93,62 %
14.10.2022 16:44 15,3 C 15,0 C 12,2 C 99 % 1009,9 hPa 0,0 l/m 0 min 0 min 63 W/m 6,4 km/h (2 Bft) 95,74 %
14.10.2022 16:46 15,3 C 15,0 C 12,2 C 99 % 1009,9 hPa 0,0 l/m 0 min 0 min 52 W/m 9,7 km/h (2 Bft) 93,48 %
14.10.2022 16:48 15,3 C 15,0 C 12,2 C 99 % 1009,9 hPa 0,0 l/m 0 min 0 min 53 W/m 3,2 km/h (1 Bft) 95,74 %
14.10.2022 16:50 15,3 C 15,0 C 12,2 C 99 % 1009,9 hPa 0,0 l/m 0 min 0 min 53 W/m 12,9 km/h (3 Bft) 95,74 %
14.10.2022 16:52 15,3 C 15,0 C 12,2 C 99 % 1009,8 hPa 0,0 l/m 0 min 0 min 58 W/m 3,2 km/h (1 Bft) 93,62 %
14.10.2022 16:54 15,3 C 15,0 C 12,2 C 99 % 1009,8 hPa 0,0 l/m 0 min 0 min 71 W/m 6,4 km/h (2 Bft) 95,74 %
14.10.2022 16:56 15,3 C 15,0 C 12,2 C 99 % 1009,8 hPa 0,0 l/m 0 min 0 min 70 W/m 3,2 km/h (1 Bft) 95,74 %
14.10.2022 16:58 15,3 C 15,0 C 12,2 C 99 % 1009,7 hPa 0,0 l/m 0 min 0 min 65 W/m 3,2 km/h (1 Bft) 93,48 %
14.10.2022 17:00 15,4 C 15,0 C 12,2 C 99 % 1009,7 hPa 0,0 l/m 0 min 0 min 64 W/m 3,2 km/h (1 Bft) 91,49 %
14.10.2022 17:02 15,4 C 15,0 C 12,2 C 99 % 1009,7 hPa 0,0 l/m 0 min 0 min 60 W/m 3,2 km/h (1 Bft) 91,49 %
14.10.2022 17:04 15,4 C 15,0 C 12,2 C 99 % 1009,7 hPa 0,0 l/m 0 min 0 min 48 W/m 3,2 km/h (1 Bft) 95,74 %
14.10.2022 17:06 15,4 C 15,0 C 12,2 C 99 % 1009,6 hPa 0,0 l/m 0 min 0 min 47 W/m 6,4 km/h (2 Bft) 95,74 %
14.10.2022 17:08 15,4 C 15,0 C 12,2 C 99 % 1009,6 hPa 0,0 l/m 0 min 0 min 53 W/m 6,4 km/h (2 Bft) 95,74 %
14.10.2022 17:10 15,4 C 15,0 C 12,2 C 99 % 1009,6 hPa 0,0 l/m 0 min 0 min 54 W/m 6,4 km/h (2 Bft) 93,48 %
14.10.2022 17:12 15,4 C 15,0 C 12,2 C 99 % 1009,5 hPa 0,0 l/m 0 min 0 min 52 W/m 6,4 km/h (2 Bft) 91,49 %
14.10.2022 17:14 15,4 C 15,0 C 12,2 C 99 % 1009,5 hPa 0,0 l/m 0 min 0 min 53 W/m 3,2 km/h (1 Bft) 95,74 %
14.10.2022 17:16 15,4 C 15,0 C 12,2 C 99 % 1009,5 hPa 0,0 l/m 0 min 0 min 54 W/m 0,0 km/h (0 Bft) 95,74 %
14.10.2022 17:18 15,4 C 15,0 C 12,2 C 99 % 1009,5 hPa 0,0 l/m 0 min 0 min 52 W/m 3,2 km/h (1 Bft) 97,87 %
14.10.2022 17:20 15,4 C 15,0 C 12,2 C 99 % 1009,5 hPa 0,0 l/m 0 min 0 min 50 W/m 9,7 km/h (2 Bft) 93,48 %
14.10.2022 17:22 15,4 C 15,0 C 12,2 C 99 % 1009,5 hPa 0,0 l/m 0 min 0 min 45 W/m 3,2 km/h (1 Bft) 95,74 %
14.10.2022 17:24 15,4 C 15,0 C 12,2 C 99 % 1009,5 hPa 0,0 l/m 0 min 0 min 41 W/m 3,2 km/h (1 Bft) 97,87 %
14.10.2022 17:26 15,4 C 15,0 C 12,2 C 99 % 1009,5 hPa 0,0 l/m 0 min 0 min 42 W/m 3,2 km/h (1 Bft) 95,74 %
14.10.2022 17:28 15,4 C 15,0 C 12,2 C 99 % 1009,5 hPa 0,0 l/m 0 min 0 min 38 W/m 9,7 km/h (2 Bft) 95,74 %
14.10.2022 17:30 15,4 C 15,0 C 12,2 C 99 % 1009,4 hPa 0,0 l/m 0 min 0 min 32 W/m 9,7 km/h (2 Bft) 97,87 %
14.10.2022 17:32 15,3 C 15,0 C 12,2 C 99 % 1009,4 hPa 0,0 l/m 0 min 0 min 30 W/m 3,2 km/h (1 Bft) 100,00 %
14.10.2022 17:34 15,3 C 15,0 C 12,2 C 99 % 1009,4 hPa 0,0 l/m 0 min 0 min 29 W/m 6,4 km/h (2 Bft) 97,83 %
14.10.2022 17:36 15,3 C 15,0 C 12,2 C 99 % 1009,4 hPa 0,0 l/m 0 min 0 min 34 W/m 9,7 km/h (2 Bft) 100,00 %
14.10.2022 17:38 15,3 C 15,0 C 12,2 C 99 % 1009,4 hPa 0,0 l/m 0 min 0 min 37 W/m 6,4 km/h (2 Bft) 100,00 %
14.10.2022 17:40 15,3 C 15,0 C 12,2 C 99 % 1009,4 hPa 0,0 l/m 0 min 0 min 36 W/m 3,2 km/h (1 Bft) 100,00 %
14.10.2022 17:42 15,3 C 15,0 C 12,2 C 99 % 1009,3 hPa 0,0 l/m 0 min 0 min 39 W/m 3,2 km/h (1 Bft) 100,00 %
14.10.2022 17:44 15,3 C 15,0 C 12,2 C 99 % 1009,4 hPa 0,0 l/m 0 min 0 min 44 W/m 6,4 km/h (2 Bft) 97,87 %
14.10.2022 17:46 15,3 C 15,0 C 12,2 C 99 % 1009,3 hPa 0,0 l/m 0 min 0 min 43 W/m 6,4 km/h (2 Bft) 100,00 %
14.10.2022 17:48 15,3 C 15,0 C 12,2 C 99 % 1009,3 hPa 0,0 l/m 0 min 0 min 39 W/m 6,4 km/h (2 Bft) 100,00 %
14.10.2022 17:50 15,3 C 15,0 C 12,2 C 99 % 1009,3 hPa 0,0 l/m 0 min 0 min 39 W/m 6,4 km/h (2 Bft) 100,00 %
14.10.2022 17:52 15,3 C 15,0 C 12,2 C 99 % 1009,3 hPa 0,0 l/m 0 min 0 min 37 W/m 9,7 km/h (2 Bft) 100,00 %
14.10.2022 17:54 15,3 C 14,4 C 12,2 C 99 % 1009,3 hPa 0,0 l/m 0 min 0 min 32 W/m 6,4 km/h (2 Bft) 100,00 %
14.10.2022 17:56 15,3 C 14,4 C 12,2 C 99 % 1009,3 hPa 0,0 l/m 0 min 0 min 26 W/m 3,2 km/h (1 Bft) 100,00 %
14.10.2022 17:58 15,3 C 14,4 C 12,2 C 99 % 1009,3 hPa 0,0 l/m 0 min 0 min 27 W/m 6,4 km/h (2 Bft) 100,00 %
14.10.2022 18:00 15,3 C 14,4 C 12,2 C 99 % 1009,3 hPa 0,0 l/m 0 min 0 min 27 W/m 3,2 km/h (1 Bft) 100,00 %
14.10.2022 18:02 15,2 C 14,4 C 12,2 C 99 % 1009,3 hPa 0,0 l/m 0 min 0 min 24 W/m 3,2 km/h (1 Bft) 97,87 %
14.10.2022 18:04 15,2 C 14,4 C 12,2 C 99 % 1009,3 hPa 0,0 l/m 0 min 0 min 22 W/m 3,2 km/h (1 Bft) 100,00 %
14.10.2022 18:08 15,3 C 14,4 C 12,2 C 99 % 1009,3 hPa 0,0 l/m 0 min 0 min 18 W/m 3,2 km/h (1 Bft) 100,00 %
14.10.2022 18:10 15,2 C 14,4 C 11,7 C 99 % 1009,3 hPa 0,0 l/m 0 min 0 min 14 W/m 3,2 km/h (1 Bft) 100,00 %
14.10.2022 18:12 15,3 C 14,4 C 11,7 C 99 % 1009,3 hPa 0,0 l/m 0 min 0 min 13 W/m 3,2 km/h (1 Bft) 100,00 %
14.10.2022 18:14 15,2 C 14,4 C 11,7 C 99 % 1009,4 hPa 0,0 l/m 0 min 0 min 12 W/m 3,2 km/h (1 Bft) 100,00 %
14.10.2022 18:16 15,2 C 14,4 C 11,7 C 99 % 1009,4 hPa 0,0 l/m 0 min 0 min 11 W/m 3,2 km/h (1 Bft) 100,00 %
14.10.2022 18:18 15,2 C 14,4 C 11,7 C 99 % 1009,3 hPa 0,0 l/m 0 min 0 min 11 W/m 3,2 km/h (1 Bft) 100,00 %
14.10.2022 18:20 15,2 C 14,4 C 11,7 C 99 % 1009,3 hPa 0,0 l/m 0 min 0 min 9 W/m 3,2 km/h (1 Bft) 97,83 %
14.10.2022 18:22 15,2 C 14,4 C 11,7 C 99 % 1009,2 hPa 0,0 l/m 0 min 0 min 9 W/m 3,2 km/h (1 Bft) 95,74 %
14.10.2022 18:24 15,2 C 14,4 C 11,7 C 99 % 1009,2 hPa 0,0 l/m 0 min 0 min 10 W/m 3,2 km/h (1 Bft) 100,00 %
14.10.2022 18:26 15,2 C 14,4 C 11,7 C 99 % 1009,2 hPa 0,0 l/m 0 min 0 min 9 W/m 0,0 km/h (0 Bft) 97,87 %
14.10.2022 18:28 15,2 C 14,4 C 11,7 C 99 % 1009,2 hPa 0,0 l/m 0 min 0 min 9 W/m 3,2 km/h (1 Bft) 100,00 %
14.10.2022 18:30 15,2 C 14,4 C 11,7 C 99 % 1009,2 hPa 0,0 l/m 0 min 0 min 9 W/m 0,0 km/h (0 Bft) 100,00 %
14.10.2022 18:32 15,2 C 14,4 C 11,7 C 99 % 1009,2 hPa 0,0 l/m 0 min 0 min 7 W/m 6,4 km/h (2 Bft) 97,83 %
14.10.2022 18:34 15,2 C 14,4 C 11,7 C 99 % 1009,2 hPa 0,0 l/m 0 min 0 min 7 W/m 6,4 km/h (2 Bft) 97,87 %
14.10.2022 18:36 15,1 C 14,4 C 11,7 C 99 % 1009,2 hPa 0,0 l/m 0 min 0 min 5 W/m 6,4 km/h (2 Bft) 100,00 %
14.10.2022 18:38 15,1 C 14,4 C 11,7 C 99 % 1009,2 hPa 0,0 l/m 0 min 0 min 0 W/m 0,0 km/h (0 Bft) 100,00 %
14.10.2022 18:40 15,1 C 14,4 C 11,7 C 99 % 1009,2 hPa 0,0 l/m 0 min 0 min 0 W/m 3,2 km/h (1 Bft) 100,00 %
14.10.2022 18:42 15,1 C 14,4 C 11,7 C 99 % 1009,2 hPa 0,0 l/m 0 min 0 min 0 W/m 3,2 km/h (1 Bft) 100,00 %
14.10.2022 18:44 15,1 C 13,9 C 11,7 C 99 % 1009,2 hPa 0,0 l/m 0 min 0 min 0 W/m 3,2 km/h (1 Bft) 100,00 %
14.10.2022 18:46 15,1 C 13,9 C 11,7 C 99 % 1009,2 hPa 0,0 l/m 0 min 0 min 0 W/m 3,2 km/h (1 Bft) 95,74 %
14.10.2022 18:48 15,1 C 13,9 C 11,7 C 99 % 1009,2 hPa 0,0 l/m 0 min 0 min 0 W/m 6,4 km/h (2 Bft) 100,00 %
14.10.2022 18:50 15,0 C 13,9 C 11,7 C 99 % 1009,2 hPa 0,0 l/m 0 min 0 min 0 W/m 6,4 km/h (2 Bft) 100,00 %
14.10.2022 18:52 15,0 C 13,9 C 11,7 C 99 % 1009,3 hPa 0,0 l/m 0 min 0 min 0 W/m 3,2 km/h (1 Bft) 100,00 %
14.10.2022 18:54 15,0 C 13,9 C 11,7 C 99 % 1009,2 hPa 0,0 l/m 0 min 0 min 0 W/m 3,2 km/h (1 Bft) 97,87 %
14.10.2022 18:56 14,9 C 13,9 C 11,7 C 99 % 1009,2 hPa 0,0 l/m 0 min 0 min 0 W/m 3,2 km/h (1 Bft) 97,83 %
14.10.2022 18:58 14,9 C 13,9 C 11,7 C 99 % 1009,2 hPa 0,0 l/m 0 min 0 min 0 W/m 3,2 km/h (1 Bft) 97,87 %
14.10.2022 19:00 14,9 C 13,9 C 11,7 C 99 % 1009,2 hPa 0,0 l/m 0 min 0 min 0 W/m 6,4 km/h (2 Bft) 97,87 %
14.10.2022 19:02 14,9 C 13,9 C 11,7 C 99 % 1009,3 hPa 0,0 l/m 0 min 0 min 0 W/m 3,2 km/h (1 Bft) 97,87 %
14.10.2022 19:04 14,9 C 13,9 C 11,7 C 99 % 1009,3 hPa 0,0 l/m 0 min 0 min 0 W/m 3,2 km/h (1 Bft) 95,74 %
14.10.2022 19:06 14,9 C 13,9 C 11,7 C 99 % 1009,4 hPa 0,0 l/m 0 min 0 min 0 W/m 3,2 km/h (1 Bft) 95,74 %
14.10.2022 19:08 14,8 C 13,9 C 11,7 C 99 % 1009,4 hPa 0,0 l/m 0 min 0 min 0 W/m 3,2 km/h (1 Bft) 95,65 %
14.10.2022 19:10 14,8 C 13,9 C 11,7 C 99 % 1009,4 hPa 0,0 l/m 0 min 0 min 0 W/m 6,4 km/h (2 Bft) 97,87 %
14.10.2022 19:12 14,8 C 13,9 C 11,7 C 99 % 1009,4 hPa 0,0 l/m 0 min 0 min 0 W/m 3,2 km/h (1 Bft) 95,74 %
14.10.2022 19:14 14,8 C 13,9 C 11,7 C 99 % 1009,3 hPa 0,0 l/m 0 min 0 min 0 W/m 0,0 km/h (0 Bft) 93,62 %
14.10.2022 19:16 14,8 C 13,9 C 11,1 C 99 % 1009,4 hPa 0,0 l/m 0 min 0 min 0 W/m 3,2 km/h (1 Bft) 93,62 %
14.10.2022 19:18 14,8 C 13,9 C 11,1 C 99 % 1009,3 hPa 0,0 l/m 0 min 0 min 0 W/m 0,0 km/h (0 Bft) 91,49 %
14.10.2022 19:20 14,7 C 13,9 C 11,1 C 99 % 1009,3 hPa 0,0 l/m 0 min 0 min 0 W/m 0,0 km/h (0 Bft) 91,49 %
14.10.2022 19:22 14,7 C 13,9 C 11,1 C 99 % 1009,3 hPa 0,0 l/m 0 min 0 min 0 W/m 0,0 km/h (0 Bft) 93,48 %
14.10.2022 19:24 14,7 C 13,9 C 11,1 C 99 % 1009,3 hPa 0,0 l/m 0 min 0 min 0 W/m 0,0 km/h (0 Bft) 93,62 %
14.10.2022 19:26 14,7 C 13,9 C 11,1 C 99 % 1009,3 hPa 0,0 l/m 0 min 0 min 0 W/m 0,0 km/h (0 Bft) 89,36 %
14.10.2022 19:28 14,7 C 13,9 C 11,1 C 99 % 1009,3 hPa 0,0 l/m 0 min 0 min 0 W/m 0,0 km/h (0 Bft) 95,74 %
14.10.2022 19:30 14,7 C 13,3 C 11,1 C 99 % 1009,2 hPa 0,0 l/m 0 min 0 min 0 W/m 0,0 km/h (0 Bft) 95,74 %
14.10.2022 19:32 14,6 C 13,3 C 11,1 C 99 % 1009,2 hPa 0,0 l/m 0 min 0 min 0 W/m 0,0 km/h (0 Bft) 95,74 %
14.10.2022 19:34 14,6 C 13,3 C 11,1 C 99 % 1009,2 hPa 0,0 l/m 0 min 0 min 0 W/m 0,0 km/h (0 Bft) 95,65 %
14.10.2022 19:36 14,6 C 13,3 C 11,1 C 99 % 1009,2 hPa 0,0 l/m 0 min 0 min 0 W/m 0,0 km/h (0 Bft) 95,74 %
14.10.2022 19:38 14,5 C 13,3 C 11,1 C 99 % 1009,2 hPa 0,0 l/m 0 min 0 min 0 W/m 0,0 km/h (0 Bft) 95,74 %
14.10.2022 19:40 14,5 C 13,3 C 11,1 C 99 % 1009,2 hPa 0,0 l/m 0 min 0 min 0 W/m 0,0 km/h (0 Bft) 95,74 %
14.10.2022 19:42 14,4 C 13,3 C 11,1 C 99 % 1009,1 hPa 0,0 l/m 0 min 0 min 0 W/m 3,2 km/h (1 Bft) 93,62 %
14.10.2022 19:44 14,4 C 13,3 C 11,1 C 99 % 1009,1 hPa 0,0 l/m 0 min 0 min 0 W/m 3,2 km/h (1 Bft) 95,65 %
14.10.2022 19:46 14,4 C 13,3 C 11,1 C 99 % 1009,1 hPa 0,0 l/m 0 min 0 min 0 W/m 3,2 km/h (1 Bft) 93,62 %
14.10.2022 19:48 14,4 C 13,3 C 11,1 C 99 % 1009,1 hPa 0,0 l/m 0 min 0 min 0 W/m 3,2 km/h (1 Bft) 95,74 %
14.10.2022 19:50 14,4 C 13,3 C 11,1 C 99 % 1009,1 hPa 0,0 l/m 0 min 0 min 0 W/m 0,0 km/h (0 Bft) 95,74 %
14.10.2022 19:52 14,3 C 13,3 C 11,1 C 99 % 1009,1 hPa 0,0 l/m 0 min 0 min 0 W/m 3,2 km/h (1 Bft) 91,49 %
14.10.2022 19:54 14,3 C 13,3 C 11,1 C 99 % 1009,2 hPa 0,0 l/m 0 min 0 min 0 W/m 3,2 km/h (1 Bft) 95,74 %
14.10.2022 19:56 14,3 C 13,3 C 11,1 C 99 % 1009,1 hPa 0,0 l/m 0 min 0 min 0 W/m 0,0 km/h (0 Bft) 95,65 %
14.10.2022 19:58 14,3 C 13,3 C 11,1 C 99 % 1009,1 hPa 0,0 l/m 0 min 0 min 0 W/m 0,0 km/h (0 Bft) 97,87 %
14.10.2022 20:00 14,3 C 13,3 C 11,1 C 99 % 1009,1 hPa 0,0 l/m 0 min 0 min 0 W/m 0,0 km/h (0 Bft) 97,87 %
14.10.2022 20:02 14,3 C 13,3 C 11,1 C 99 % 1009,1 hPa 0,0 l/m 0 min 0 min 0 W/m 0,0 km/h (0 Bft) 97,87 %
14.10.2022 20:04 14,3 C 13,3 C 11,1 C 99 % 1009,2 hPa 0,0 l/m 0 min 0 min 0 W/m 0,0 km/h (0 Bft) 100,00 %
14.10.2022 20:06 14,3 C 13,3 C 11,1 C 99 % 1009,1 hPa 0,0 l/m 0 min 0 min 0 W/m 0,0 km/h (0 Bft) 100,00 %
14.10.2022 20:08 14,3 C 13,3 C 11,1 C 99 % 1009,1 hPa 0,0 l/m 0 min 0 min 0 W/m 0,0 km/h (0 Bft) 100,00 %
14.10.2022 20:10 14,3 C 13,3 C 11,1 C 99 % 1009,1 hPa 0,0 l/m 0 min 0 min 0 W/m 0,0 km/h (0 Bft) 97,87 %
14.10.2022 20:12 14,3 C 13,3 C 10,6 C 99 % 1009,2 hPa 0,0 l/m 0 min 0 min 0 W/m 0,0 km/h (0 Bft) 100,00 %
14.10.2022 20:14 14,3 C 13,3 C 11,1 C 99 % 1009,3 hPa 0,0 l/m 0 min 0 min 0 W/m 3,2 km/h (1 Bft) 100,00 %
14.10.2022 20:16 14,3 C 13,3 C 11,1 C 99 % 1009,3 hPa 0,0 l/m 0 min 0 min 0 W/m 0,0 km/h (0 Bft) 97,87 %
14.10.2022 20:18 14,3 C 13,3 C 11,1 C 99 % 1009,2 hPa 0,0 l/m 0 min 0 min 0 W/m 0,0 km/h (0 Bft) 100,00 %
14.10.2022 20:20 14,3 C 13,3 C 11,1 C 99 % 1009,2 hPa 0,0 l/m 0 min 0 min 0 W/m 0,0 km/h (0 Bft) 100,00 %
14.10.2022 20:22 14,3 C 13,3 C 11,1 C 99 % 1009,2 hPa 0,0 l/m 0 min 0 min 0 W/m 0,0 km/h (0 Bft) 100,00 %
14.10.2022 20:24 14,3 C 13,3 C 11,1 C 99 % 1009,2 hPa 0,0 l/m 0 min 0 min 0 W/m 0,0 km/h (0 Bft) 100,00 %
14.10.2022 20:26 14,3 C 13,3 C 10,6 C 99 % 1009,1 hPa 0,0 l/m 0 min 0 min 0 W/m 0,0 km/h (0 Bft) 100,00 %
14.10.2022 20:28 14,3 C 13,3 C 10,6 C 99 % 1009,1 hPa 0,0 l/m 0 min 0 min 0 W/m 0,0 km/h (0 Bft) 97,87 %
14.10.2022 20:30 14,3 C 13,3 C 10,6 C 99 % 1009,1 hPa 0,0 l/m 0 min 0 min 0 W/m 0,0 km/h (0 Bft) 100,00 %
14.10.2022 20:32 14,3 C 13,3 C 10,6 C 99 % 1009,1 hPa 0,0 l/m 0 min 0 min 0 W/m 0,0 km/h (0 Bft) 100,00 %
14.10.2022 20:34 14,3 C 13,3 C 10,6 C 99 % 1009,1 hPa 0,0 l/m 0 min 0 min 0 W/m 0,0 km/h (0 Bft) 100,00 %
14.10.2022 20:36 14,3 C 12,8 C 10,6 C 99 % 1009,1 hPa 0,0 l/m 0 min 0 min 0 W/m 0,0 km/h (0 Bft) 100,00 %
14.10.2022 20:38 14,3 C 12,8 C 10,6 C 99 % 1009,1 hPa 0,0 l/m 0 min 0 min 0 W/m 0,0 km/h (0 Bft) 97,87 %
14.10.2022 20:40 14,2 C 12,8 C 10,6 C 99 % 1009,1 hPa 0,0 l/m 0 min 0 min 0 W/m 0,0 km/h (0 Bft) 100,00 %
14.10.2022 20:42 14,2 C 12,8 C 10,6 C 99 % 1009,1 hPa 0,0 l/m 0 min 0 min 0 W/m 0,0 km/h (0 Bft) 100,00 %
14.10.2022 20:44 14,1 C 12,8 C 10,6 C 99 % 1009,2 hPa 0,0 l/m 0 min 0 min 0 W/m 0,0 km/h (0 Bft) 100,00 %
14.10.2022 20:46 14,1 C 12,8 C 10,6 C 99 % 1009,1 hPa 0,0 l/m 0 min 0 min 0 W/m 0,0 km/h (0 Bft) 100,00 %
14.10.2022 20:48 14,1 C 12,8 C 10,6 C 99 % 1009,1 hPa 0,0 l/m 0 min 0 min 0 W/m 0,0 km/h (0 Bft) 95,74 %
14.10.2022 20:50 14,1 C 12,8 C 10,6 C 99 % 1009,0 hPa 0,0 l/m 0 min 0 min 0 W/m 3,2 km/h (1 Bft) 97,87 %
14.10.2022 20:52 14,1 C 13,3 C 10,6 C 99 % 1008,9 hPa 0,0 l/m 0 min 0 min 0 W/m 0,0 km/h (0 Bft) 97,87 %
14.10.2022 20:54 14,1 C 13,3 C 11,1 C 99 % 1008,9 hPa 0,0 l/m 0 min 0 min 0 W/m 0,0 km/h (0 Bft) 97,87 %
14.10.2022 20:56 14,1 C 13,3 C 11,1 C 99 % 1008,9 hPa 0,0 l/m 0 min 0 min 0 W/m 3,2 km/h (1 Bft) 97,87 %
14.10.2022 20:58 14,1 C 13,3 C 11,1 C 99 % 1008,9 hPa 0,0 l/m 0 min 0 min 0 W/m 3,2 km/h (1 Bft) 97,83 %
14.10.2022 21:00 14,1 C 13,3 C 11,1 C 99 % 1008,9 hPa 0,0 l/m 0 min 0 min 0 W/m 0,0 km/h (0 Bft) 95,74 %
14.10.2022 21:02 14,1 C 13,3 C 11,1 C 99 % 1009,0 hPa 0,0 l/m 0 min 0 min 0 W/m 3,2 km/h (1 Bft) 97,87 %
14.10.2022 21:04 14,1 C 13,3 C 11,1 C 99 % 1008,8 hPa 0,0 l/m 0 min 0 min 0 W/m 3,2 km/h (1 Bft) 97,87 %
14.10.2022 21:06 14,1 C 13,3 C 11,1 C 99 % 1008,8 hPa 0,0 l/m 0 min 0 min 0 W/m 3,2 km/h (1 Bft) 97,87 %
14.10.2022 21:08 14,1 C 13,3 C 11,1 C 99 % 1008,8 hPa 0,0 l/m 0 min 0 min 0 W/m 3,2 km/h (1 Bft) 97,83 %
14.10.2022 21:10 14,1 C 13,3 C 11,1 C 99 % 1008,9 hPa 0,0 l/m 0 min 0 min 0 W/m 3,2 km/h (1 Bft) 97,87 %
14.10.2022 21:12 14,1 C 13,3 C 11,1 C 99 % 1008,9 hPa 0,0 l/m 0 min 0 min 0 W/m 3,2 km/h (1 Bft) 95,92 %
14.10.2022 21:14 14,1 C 13,3 C 11,1 C 99 % 1009,0 hPa 0,0 l/m 0 min 0 min 0 W/m 0,0 km/h (0 Bft) 97,87 %
14.10.2022 21:16 14,2 C 13,3 C 11,1 C 99 % 1009,0 hPa 0,0 l/m 0 min 0 min 0 W/m 3,2 km/h (1 Bft) 97,87 %
14.10.2022 21:18 14,2 C 13,3 C 11,1 C 99 % 1008,9 hPa 0,0 l/m 0 min 0 min 0 W/m 3,2 km/h (1 Bft) 95,74 %
14.10.2022 21:20 14,2 C 13,3 C 11,1 C 99 % 1008,9 hPa 0,0 l/m 0 min 0 min 0 W/m 3,2 km/h (1 Bft) 97,83 %
14.10.2022 21:22 14,2 C 13,3 C 11,1 C 99 % 1008,9 hPa 0,0 l/m 0 min 0 min 0 W/m 3,2 km/h (1 Bft) 97,87 %
14.10.2022 21:24 14,2 C 13,3 C 11,1 C 99 % 1008,9 hPa 0,0 l/m 0 min 0 min 0 W/m 3,2 km/h (1 Bft) 100,00 %
14.10.2022 21:26 14,2 C 13,3 C 11,1 C 99 % 1008,9 hPa 0,0 l/m 0 min 0 min 0 W/m 3,2 km/h (1 Bft) 100,00 %
14.10.2022 21:28 14,2 C 13,3 C 11,1 C 99 % 1008,9 hPa 0,0 l/m 0 min 0 min 0 W/m 3,2 km/h (1 Bft) 97,87 %
14.10.2022 21:30 14,2 C 13,3 C 11,1 C 99 % 1008,9 hPa 0,0 l/m 0 min 0 min 0 W/m 0,0 km/h (0 Bft) 100,00 %
14.10.2022 21:32 14,2 C 13,3 C 11,1 C 99 % 1008,9 hPa 0,0 l/m 0 min 0 min 0 W/m 3,2 km/h (1 Bft) 93,48 %
14.10.2022 21:34 14,2 C 13,3 C 11,1 C 99 % 1008,8 hPa 0,0 l/m 0 min 0 min 0 W/m 3,2 km/h (1 Bft) 100,00 %
14.10.2022 21:36 14,2 C 13,3 C 11,1 C 99 % 1008,7 hPa 0,0 l/m 0 min 0 min 0 W/m 3,2 km/h (1 Bft) 97,87 %
14.10.2022 21:38 14,2 C 13,3 C 11,1 C 99 % 1008,7 hPa 0,0 l/m 0 min 0 min 0 W/m 3,2 km/h (1 Bft) 100,00 %
14.10.2022 21:40 14,2 C 13,3 C 11,1 C 99 % 1008,7 hPa 0,0 l/m 0 min 0 min 0 W/m 3,2 km/h (1 Bft) 100,00 %
14.10.2022 21:42 14,2 C 13,3 C 11,1 C 99 % 1008,7 hPa 0,0 l/m 0 min 0 min 0 W/m 3,2 km/h (1 Bft) 97,87 %
14.10.2022 21:44 14,2 C 13,3 C 11,1 C 99 % 1008,6 hPa 0,0 l/m 0 min 0 min 0 W/m 3,2 km/h (1 Bft) 100,00 %
14.10.2022 21:46 14,2 C 13,3 C 11,1 C 99 % 1008,6 hPa 0,0 l/m 0 min 0 min 0 W/m 3,2 km/h (1 Bft) 97,87 %
14.10.2022 21:48 14,2 C 13,3 C 11,1 C 99 % 1008,6 hPa 0,0 l/m 0 min 0 min 0 W/m 3,2 km/h (1 Bft) 97,87 %
14.10.2022 21:50 14,2 C 13,3 C 11,1 C 99 % 1008,6 hPa 0,0 l/m 0 min 0 min 0 W/m 3,2 km/h (1 Bft) 97,87 %
14.10.2022 21:52 14,2 C 13,3 C 11,1 C 99 % 1008,6 hPa 0,0 l/m 0 min 0 min 0 W/m 3,2 km/h (1 Bft) 95,65 %
14.10.2022 21:54 14,2 C 13,3 C 11,1 C 99 % 1008,6 hPa 0,0 l/m 0 min 0 min 0 W/m 3,2 km/h (1 Bft) 97,87 %
14.10.2022 21:56 14,2 C 13,3 C 11,1 C 99 % 1008,7 hPa 0,0 l/m 0 min 0 min 0 W/m 3,2 km/h (1 Bft) 97,87 %
14.10.2022 21:58 14,1 C 13,3 C 11,1 C 99 % 1008,6 hPa 0,0 l/m 0 min 0 min 0 W/m 3,2 km/h (1 Bft) 97,87 %
14.10.2022 22:00 14,1 C 13,3 C 11,1 C 99 % 1008,5 hPa 0,0 l/m 0 min 0 min 0 W/m 3,2 km/h (1 Bft) 97,87 %
14.10.2022 22:02 14,1 C 13,3 C 11,1 C 99 % 1008,5 hPa 0,0 l/m 0 min 0 min 0 W/m 3,2 km/h (1 Bft) 97,87 %
14.10.2022 22:04 14,1 C 13,3 C 11,1 C 99 % 1008,5 hPa 0,0 l/m 0 min 0 min 0 W/m 3,2 km/h (1 Bft) 93,48 %
14.10.2022 22:06 14,1 C 13,3 C 11,1 C 99 % 1008,5 hPa 0,0 l/m 0 min 0 min 0 W/m 3,2 km/h (1 Bft) 96,61 %
14.10.2022 22:08 14,1 C 13,3 C 11,1 C 99 % 1008,5 hPa 0,0 l/m 0 min 0 min 0 W/m 0,0 km/h (0 Bft) 94,29 %
14.10.2022 22:10 14,1 C 13,3 C 11,1 C 99 % 1008,6 hPa 0,0 l/m 0 min 0 min 0 W/m 0,0 km/h (0 Bft) 97,87 %
14.10.2022 22:12 14,1 C 13,3 C 11,1 C 99 % 1008,6 hPa 0,0 l/m 0 min 0 min 0 W/m 0,0 km/h (0 Bft) 95,74 %
14.10.2022 22:14 14,1 C 13,3 C 11,1 C 99 % 1008,6 hPa 0,0 l/m 0 min 0 min 0 W/m 0,0 km/h (0 Bft) 95,74 %
14.10.2022 22:16 14,1 C 13,3 C 11,1 C 99 % 1008,6 hPa 0,0 l/m 0 min 0 min 0 W/m 0,0 km/h (0 Bft) 93,48 %
14.10.2022 22:18 14,1 C 13,3 C 11,1 C 99 % 1008,6 hPa 0,0 l/m 0 min 0 min 0 W/m 0,0 km/h (0 Bft) 93,62 %
14.10.2022 22:20 14,1 C 13,3 C 11,1 C 99 % 1008,5 hPa 0,0 l/m 0 min 0 min 0 W/m 0,0 km/h (0 Bft) 95,74 %
14.10.2022 22:22 14,0 C 12,8 C 11,1 C 99 % 1008,4 hPa 0,0 l/m 0 min 0 min 0 W/m 0,0 km/h (0 Bft) 95,74 %
14.10.2022 22:24 14,0 C 12,8 C 10,6 C 99 % 1008,5 hPa 0,0 l/m 0 min 0 min 0 W/m 0,0 km/h (0 Bft) 95,74 %
14.10.2022 22:26 14,0 C 12,8 C 10,6 C 99 % 1008,5 hPa 0,0 l/m 0 min 0 min 0 W/m 0,0 km/h (0 Bft) 95,74 %
14.10.2022 22:28 14,0 C 12,8 C 10,6 C 99 % 1008,4 hPa 0,0 l/m 0 min 0 min 0 W/m 0,0 km/h (0 Bft) 95,65 %
14.10.2022 22:30 13,9 C 12,8 C 10,6 C 99 % 1008,4 hPa 0,0 l/m 0 min 0 min 0 W/m 0,0 km/h (0 Bft) 95,74 %
14.10.2022 22:32 13,9 C 12,8 C 10,6 C 99 % 1008,4 hPa 0,0 l/m 0 min 0 min 0 W/m 0,0 km/h (0 Bft) 93,62 %
14.10.2022 22:34 13,9 C 12,8 C 10,6 C 99 % 1008,3 hPa 0,0 l/m 0 min 0 min 0 W/m 0,0 km/h (0 Bft) 93,62 %
14.10.2022 22:36 13,9 C 12,8 C 10,6 C 99 % 1008,4 hPa 0,0 l/m 0 min 0 min 0 W/m 0,0 km/h (0 Bft) 94,83 %
14.10.2022 22:38 13,9 C 12,8 C 10,6 C 99 % 1008,5 hPa 0,0 l/m 0 min 0 min 0 W/m 0,0 km/h (0 Bft) 97,22 %
14.10.2022 22:40 13,8 C 12,8 C 10,6 C 99 % 1008,4 hPa 0,0 l/m 0 min 0 min 0 W/m 0,0 km/h (0 Bft) 95,65 %
14.10.2022 22:42 13,8 C 12,8 C 10,6 C 99 % 1008,4 hPa 0,0 l/m 0 min 0 min 0 W/m 0,0 km/h (0 Bft) 93,62 %
14.10.2022 22:44 13,8 C 12,8 C 10,6 C 99 % 1008,3 hPa 0,0 l/m 0 min 0 min 0 W/m 0,0 km/h (0 Bft) 95,74 %
14.10.2022 22:46 13,8 C 12,8 C 10,6 C 99 % 1008,4 hPa 0,0 l/m 0 min 0 min 0 W/m 0,0 km/h (0 Bft) 93,62 %
14.10.2022 22:48 13,8 C 12,8 C 10,6 C 99 % 1008,4 hPa 0,0 l/m 0 min 0 min 0 W/m 0,0 km/h (0 Bft) 95,74 %
14.10.2022 22:50 13,8 C 12,8 C 10,6 C 99 % 1008,4 hPa 0,0 l/m 0 min 0 min 0 W/m 0,0 km/h (0 Bft) 93,62 %
14.10.2022 22:52 13,7 C 12,8 C 10,6 C 99 % 1008,4 hPa 0,0 l/m 0 min 0 min 0 W/m 0,0 km/h (0 Bft) 95,65 %
14.10.2022 22:54 13,7 C 12,8 C 10,6 C 99 % 1008,4 hPa 0,0 l/m 0 min 0 min 0 W/m 0,0 km/h (0 Bft) 97,87 %
14.10.2022 22:56 13,7 C 12,8 C 10,6 C 99 % 1008,4 hPa 0,0 l/m 0 min 0 min 0 W/m 0,0 km/h (0 Bft) 97,87 %
14.10.2022 22:58 13,7 C 12,2 C 10,6 C 99 % 1008,3 hPa 0,0 l/m 0 min 0 min 0 W/m 0,0 km/h (0 Bft) 97,87 %
14.10.2022 23:00 13,7 C 12,2 C 10,0 C 99 % 1008,3 hPa 0,0 l/m 0 min 0 min 0 W/m 0,0 km/h (0 Bft) 97,87 %
14.10.2022 23:02 13,7 C 12,2 C 10,0 C 99 % 1008,2 hPa 0,0 l/m 0 min 0 min 0 W/m 0,0 km/h (0 Bft) 93,62 %
14.10.2022 23:04 13,6 C 12,2 C 10,0 C 99 % 1008,2 hPa 0,0 l/m 0 min 0 min 0 W/m 0,0 km/h (0 Bft) 93,48 %
14.10.2022 23:06 13,6 C 12,2 C 10,0 C 99 % 1008,2 hPa 0,0 l/m 0 min 0 min 0 W/m 0,0 km/h (0 Bft) 96,61 %
14.10.2022 23:08 13,6 C 12,2 C 10,0 C 99 % 1008,3 hPa 0,0 l/m 0 min 0 min 0 W/m 0,0 km/h (0 Bft) 97,14 %
14.10.2022 23:10 13,5 C 12,2 C 10,0 C 99 % 1008,4 hPa 0,0 l/m 0 min 0 min 0 W/m 0,0 km/h (0 Bft) 95,74 %
14.10.2022 23:12 13,5 C 12,2 C 10,0 C 99 % 1008,3 hPa 0,0 l/m 0 min 0 min 0 W/m 0,0 km/h (0 Bft) 100,00 %
14.10.2022 23:14 13,4 C 12,2 C 10,0 C 99 % 1008,3 hPa 0,0 l/m 0 min 0 min 0 W/m 0,0 km/h (0 Bft) 100,00 %
14.10.2022 23:16 13,4 C 12,2 C 10,0 C 99 % 1008,4 hPa 0,0 l/m 0 min 0 min 0 W/m 0,0 km/h (0 Bft) 97,83 %
14.10.2022 23:18 13,4 C 12,2 C 10,0 C 99 % 1008,4 hPa 0,0 l/m 0 min 0 min 0 W/m 0,0 km/h (0 Bft) 100,00 %
14.10.2022 23:20 13,4 C 12,2 C 10,0 C 99 % 1008,4 hPa 0,0 l/m 0 min 0 min 0 W/m 0,0 km/h (0 Bft) 100,00 %
14.10.2022 23:22 13,3 C 12,2 C 10,0 C 99 % 1008,4 hPa 0,0 l/m 0 min 0 min 0 W/m 0,0 km/h (0 Bft) 100,00 %
14.10.2022 23:24 13,3 C 12,2 C 10,0 C 99 % 1008,4 hPa 0,0 l/m 0 min 0 min 0 W/m 0,0 km/h (0 Bft) 100,00 %
14.10.2022 23:26 13,3 C 12,2 C 10,0 C 99 % 1008,4 hPa 0,0 l/m 0 min 0 min 0 W/m 0,0 km/h (0 Bft) 100,00 %
14.10.2022 23:28 13,3 C 12,2 C 10,0 C 99 % 1008,4 hPa 0,0 l/m 0 min 0 min 0 W/m 0,0 km/h (0 Bft) 97,83 %
14.10.2022 23:30 13,3 C 12,2 C 10,0 C 99 % 1008,4 hPa 0,0 l/m 0 min 0 min 0 W/m 0,0 km/h (0 Bft) 100,00 %
14.10.2022 23:32 13,3 C 12,2 C 10,0 C 99 % 1008,4 hPa 0,0 l/m 0 min 0 min 0 W/m 0,0 km/h (0 Bft) 100,00 %
14.10.2022 23:34 13,2 C 12,2 C 10,0 C 99 % 1008,3 hPa 0,0 l/m 0 min 0 min 0 W/m 0,0 km/h (0 Bft) 100,00 %
14.10.2022 23:36 13,2 C 12,2 C 10,0 C 99 % 1008,2 hPa 0,0 l/m 0 min 0 min 0 W/m 0,0 km/h (0 Bft) 98,28 %
14.10.2022 23:38 13,2 C 12,2 C 10,6 C 99 % 1008,3 hPa 0,0 l/m 0 min 0 min 0 W/m 0,0 km/h (0 Bft) 100,00 %
14.10.2022 23:40 13,2 C 12,2 C 10,6 C 99 % 1008,3 hPa 0,0 l/m 0 min 0 min 0 W/m 0,0 km/h (0 Bft) 100,00 %
14.10.2022 23:42 13,3 C 12,8 C 10,6 C 99 % 1008,3 hPa 0,0 l/m 0 min 0 min 0 W/m 3,2 km/h (1 Bft) 97,87 %
14.10.2022 23:44 13,3 C 12,8 C 10,6 C 99 % 1008,3 hPa 0,0 l/m 0 min 0 min 0 W/m 3,2 km/h (1 Bft) 100,00 %
14.10.2022 23:46 13,3 C 12,8 C 10,6 C 99 % 1008,4 hPa 0,0 l/m 0 min 0 min 0 W/m 0,0 km/h (0 Bft) 100,00 %
14.10.2022 23:48 13,3 C 12,8 C 10,6 C 99 % 1008,3 hPa 0,0 l/m 0 min 0 min 0 W/m 0,0 km/h (0 Bft) 97,87 %
14.10.2022 23:50 13,3 C 12,8 C 10,6 C 99 % 1008,3 hPa 0,0 l/m 0 min 0 min 0 W/m 0,0 km/h (0 Bft) 100,00 %
14.10.2022 23:52 13,3 C 12,8 C 10,6 C 99 % 1008,2 hPa 0,0 l/m 0 min 0 min 0 W/m 0,0 km/h (0 Bft) 100,00 %
14.10.2022 23:54 13,3 C 12,2 C 10,6 C 99 % 1008,2 hPa 0,0 l/m 0 min 0 min 0 W/m 0,0 km/h (0 Bft) 97,87 %
14.10.2022 23:56 13,3 C 12,2 C 10,6 C 99 % 1008,2 hPa 0,0 l/m 0 min 0 min 0 W/m 0,0 km/h (0 Bft) 100,00 %
14.10.2022 23:58 13,3 C 12,2 C 10,6 C 99 % 1008,3 hPa 0,0 l/m 0 min 0 min 0 W/m 0,0 km/h (0 Bft) 97,87 %
_ Min-Zeit 00:00 00:00 00:00 00:00 23:02 - - - - 00:32 05:18
Minimum _ 12,4 C 11,7 C 8,9 C 97 % 1008,2 hPa - - - - 0,0 km/h (0 Bft) 72,34 %
_ Max-Zeit 17:00 16:10 16:10 08:52 00:00 13:08 00:00 06:08 14:48 12:54 00:16
Maximum _ 15,4 C 15,0 C 12,2 C 100 % 1016,8 hPa 0,4 l/m 0 min 4 min 149 W/m 19,3 km/h
S (3 Bft)
100,00 %
Durchschnitt _ 13,6 C 12,9 C 10,3 C 99 % 1012,2 hPa #3,2 l/m #0 min. #1:12 h 63 W/m 4,8 km/h (1 Bft) 97,33 %
© 2022 W. Hausmann